ADDS METAR Data INFO
IDs: Format: Raw Decoded Include TAF

Data at: 0248 UTC 21 Jan 2018

KBBF 210235Z AUTO 17021KT 10SM BKN019 BKN027 BKN034 22/19 A3002 RMK A01
KBBF 210215Z AUTO 17020KT 10SM BKN019 BKN023 OVC033 22/19 A3002 RMK A01
KBBF 210155Z AUTO 17019KT 10SM BKN021 OVC031 22/19 A3003 RMK A01
KBBF 210135Z AUTO 17018KT 10SM OVC020 22/19 A3002 RMK A01
KBBF 210115Z AUTO 17017KT 10SM BKN018 OVC043 22/19 A3002 RMK A01
KBBF 210055Z AUTO 18013KT 10SM SCT020 OVC043 22/19 A3002 RMK A01
KBBF 210035Z AUTO 19013KT 10SM SCT020 BKN027 OVC040 22/19 A3003 RMK A01
KBBF 210015Z AUTO 18013KT 10SM BKN027 OVC038 22/19 A3002 RMK A01
KBBF 202355Z AUTO 18011KT 10SM OVC029 21/19 A3002 RMK A01
KBBF 202335Z AUTO 18010KT 10SM BKN031 21/19 A3002 RMK A01
KBBF 202315Z AUTO 19010KT 10SM CLR 21/19 A3002 RMK A01
KBBF 202255Z AUTO 19009KT 10SM CLR 21/19 A3002 RMK A01
KBBF 202235Z AUTO 19010KT 10SM CLR 21/19 A3001 RMK A01
KBBF 202215Z AUTO 19010KT 10SM CLR 21/19 A3001 RMK A01
KBBF 202155Z AUTO 19010KT 10SM CLR 21/19 A3000 RMK A01
KBBF 202135Z AUTO 19010KT 10SM CLR 21/19 A3000 RMK A01
KBBF 202115Z AUTO 20008KT 10SM CLR 21/19 A3000 RMK A01
KBBF 202055Z AUTO 21008KT 10SM CLR 21/19 A3001 RMK A01
KBBF 202035Z AUTO 22010KT 10SM CLR 21/19 A3002 RMK A01
KBBF 202015Z AUTO 21010KT 10SM CLR 21/19 A3002 RMK A01
KBBF 201955Z AUTO 21012KT 10SM FEW010 21/19 A3003 RMK A01
KBBF 201935Z AUTO 23011KT 10SM BKN010 BKN014 21/18 A3003 RMK A01
KBBF 201915Z AUTO 22011KT 10SM BKN011 21/18 A3004 RMK A01
KBBF 201855Z AUTO 23012KT 10SM FEW014 FEW023 SCT055 21/18 A3005 RMK A01
KBBF 201835Z AUTO 22013G19KT SCT014 BKN023 OVC050 21/18 A3006 RMK A01
KBBF 201815Z AUTO 20016KT 10SM FEW017 SCT023 BKN050 22/19 A3006 RMK A01
KBBF 201755Z AUTO 20018KT 10SM CLR 22/19 A3007 RMK A01
KBBF 201735Z AUTO 19018KT 10SM FEW030 FEW037 SCT044 22/18 A3008 RMK A01
KBBF 201715Z AUTO 19017KT 10SM SCT031 BKN037 BKN042 22/18 A3009 RMK A01
KBBF 201655Z AUTO 20018KT 10SM BKN031 BKN050 BKN060 22/18 A3010 RMK A01
KBBF 201635Z AUTO 20018KT 10SM FEW037 SCT046 BKN050 22/18 A3010 RMK A01
KBBF 201615Z AUTO 20021KT 10SM FEW036 SCT044 BKN050 22/18 A3009 RMK A01
KBBF 201555Z AUTO 20023KT 10SM SCT049 SCT055 22/18 A3009 RMK A01
KBBF 201535Z AUTO 20021KT 10SM FEW032 BKN047 BKN070 22/18 A3008 RMK A01
KBBF 201515Z AUTO 20020KT 10SM SCT033 SCT039 BKN048 22/18 A3008 RMK A01
KBBF 201455Z AUTO 20020KT 10SM BKN038 OVC047 22/18 A3007 RMK A01
KBBF 201435Z AUTO 20021KT 10SM BKN038 OVC046 21/18 A3006 RMK A01
KBBF 201415Z AUTO 19020KT 10SM BKN036 BKN080 22/18 A3006 RMK A01
KBBF 201355Z AUTO 19023KT 10SM SCT031 BKN038 BKN080 21/18 A3005 RMK A01
KBBF 201335Z AUTO 18021KT 10SM FEW024 BKN031 OVC039 21/18 A3005 RMK A01
KBBF 201315Z AUTO 18020KT 10SM FEW019 SCT034 BKN039 21/18 A3005 RMK A01
KBBF 201255Z AUTO 19021KT 10SM SCT016 BKN041 OVC048 21/18 A3004 RMK A01
KBBF 201235Z AUTO 19023KT 10SM SCT017 BKN050 OVC065 21/17 A3004 RMK A01
KBBF 201215Z AUTO 19025KT 10SM OVC050 21/17 A3003 RMK A01
KBBF 201155Z AUTO 19023G30KT 10SM OVC050 21/17 A3003 RMK A01
KBBF 201135Z AUTO 19025G31KT 10SM FEW017 BKN049 OVC055 21/17 A3003 RMK A01
KBBF 201115Z AUTO 19023KT 10SM FEW014 SCT019 BKN035 21/17 A3004 RMK A01
KBBF 201055Z AUTO 19024KT 10SM FEW035 SCT050 OVC065 21/16 A3004 RMK A01
KBBF 201035Z AUTO 19023G31KT 10SM BKN060 OVC065 21/16 A3004 RMK A01
KBBF 201015Z AUTO 19024G29KT 10SM BKN060 OVC075 21/16 A3004 RMK A01
KBBF 200955Z AUTO 19028KT 10SM FEW050 BKN060 OVC075 21/16 A3004 RMK A01
KBBF 200935Z AUTO 19026G32KT 10SM FEW041 BKN050 OVC065 21/16 A3005 RMK A01
KBBF 200915Z AUTO 19030KT 10SM SCT041 BKN049 OVC070 21/16 A3005 RMK A01
KBBF 200855Z AUTO 18028KT 10SM FEW024 BKN040 OVC065 21/15 A3005 RMK A01
KBBF 200835Z AUTO 19022G29KT 10SM SCT025 BKN030 OVC065 21/16 A3007 RMK A01
KBBF 200815Z AUTO 18023KT 10SM SCT025 SCT030 OVC050 21/16 A3007 RMK A01
KBBF 200755Z AUTO 18027KT 10SM BKN050 OVC065 21/15 A3007 RMK A01
KBBF 200735Z AUTO 18027KT 10SM FEW026 SCT034 BKN050 21/16 A3007 RMK A01
KBBF 200715Z AUTO 18027KT 10SM FEW026 SCT034 BKN049 21/16 A3007 RMK A01
KBBF 200655Z AUTO 18028KT 10SM FEW021 BKN038 OVC060 21/16 A3007 RMK A01
KBBF 200635Z AUTO 18026KT 10SM SCT022 BKN031 OVC042 20/16 A3008 RMK A01
KBBF 200615Z AUTO 18022KT 10SM BKN025 OVC034 20/15 A3009 RMK A01
KBBF 200555Z AUTO 18023KT 10SM SCT026 OVC034 20/15 A3009 RMK A01
KBBF 200535Z AUTO 18022KT 10SM FEW025 BKN034 OVC065 20/15 A3010 RMK A01
KBBF 200515Z AUTO 19024KT 10SM BKN065 OVC075 20/15 A3011 RMK A01
KBBF 200455Z AUTO 19024KT 10SM FEW025 BKN060 OVC070 20/16 A3011 RMK A01
KBBF 200435Z AUTO 19023KT 10SM FEW021 SCT034 OVC050 20/15 A3012 RMK A01
KBBF 200415Z AUTO 19021KT 10SM BKN021 BKN027 OVC050 20/16 A3012 RMK A01
KBBF 200355Z AUTO 20020KT 10SM FEW015 BKN020 OVC025 19/16 A3012 RMK A01
KBBF 200335Z AUTO 20016KT 10SM FEW011 BKN021 OVC026 19/16 A3013 RMK A01
KBBF 200315Z AUTO 21009KT 10SM SCT012 BKN021 OVC027 18/16 A3012 RMK A01
KBBF 200255Z AUTO 18007KT 10SM FEW014 BKN021 OVC027 18/16 A3012 RMK A01
KBBF 200235Z AUTO 23005KT 10SM SCT010 BKN015 OVC034 18/16 A3013 RMK A01
KBBF 200215Z AUTO 23005KT 10SM FEW006 SCT010 BKN017 18/16 A3012 RMK A01
KBBF 200155Z AUTO 25005KT 10SM FEW005 SCT008 BKN013 18/16 A3012 RMK A01
KBBF 200135Z AUTO 22008KT 10SM SCT008 BKN013 OVC018 18/16 A3012 RMK A01
KBBF 200115Z AUTO 22004KT 10SM FEW008 BKN017 OVC028 18/16 A3011 RMK A01
KBBF 200055Z AUTO 24004KT 10SM SCT006 BKN009 OVC027 17/16 A3011 RMK A01
KBBF 200035Z AUTO 22006KT 10SM BKN007 BKN017 OVC022 18/16 A3011 RMK A01
KBBF 200015Z AUTO 21006KT 10SM FEW010 SCT017 BKN022 18/16 A3010 RMK A01
KBBF 192355Z AUTO 23005KT 10SM FEW009 BKN028 OVC048 18/16 A3010 RMK A01
KBBF 192335Z AUTO 22005KT 10SM SCT012 BKN023 OVC048 18/16 A3010 RMK A01
KBBF 192315Z AUTO 23006KT 10SM FEW013 BKN023 OVC037 18/16 A3010 RMK A01
KBBF 192255Z AUTO 21007KT 10SM FEW006 BKN035 BKN042 17/16 A3010 RMK A01
KBBF 192235Z AUTO 23010G15KT 10SM SCT006 BKN011 BKN029 17/16 A3010 RMK A01
KBBF 192210Z AUTO 23015KT 10SM SCT007 SCT011 BKN026 17/16 A3010 RMK A01
KBBF 192155Z AUTO 23014KT 10SM SCT005 SCT009 BKN021 17/15 A3009 RMK A01
KBBF 192135Z AUTO 23017KT 10SM SCT005 BKN009 BKN021 18/16 A3007 RMK A01
KBBF 192115Z AUTO 12012G19KT 10SM BKN005 BKN010 OVC027 18/16 A3008 RMK A01
KBBF 192055Z AUTO 17018G27KT 10SM BKN004 OVC014 17/15 A3010 RMK A01
KBBF 192035Z AUTO 18030KT 10SM OVC005 17/16 A3009 RMK A01
KBBF 192010Z AUTO 15023G32KT 10SM SCT005 BKN023 OVC037 18/16 A3010 RMK A01
KBBF 191955Z AUTO 15029KT 10SM SCT005 BKN011 OVC023 18/16 A3007 RMK A01
KBBF 191935Z AUTO 14023G29KT 10SM BKN005 BKN010 OVC016 18/16 A3009 RMK A01
KBBF 191915Z AUTO 12015G26KT 10SM SCT010 BKN016 OVC043 19/16 A3011 RMK A01
KBBF 191855Z AUTO 12016G29KT 090V150 10SM FEW011 SCT022 BKN033 19/16 A3011 RMK A01
KBBF 191835Z AUTO 13014G25KT 100V160 10SM FEW009 BKN031 OVC055 19/15 A3015 RMK A01
KBBF 191815Z AUTO 12012G22KT 090V150 10SM SCT009 SCT040 BKN055 19/16 A3016 RMK A01
KBBF 191755Z AUTO 12014G20KT 10SM SCT070 BKN090 19/15 A3017 RMK A01
KBBF 191735Z AUTO 13012G19KT 040V160 10SM FEW026 BKN095 19/15 A3020 RMK A01
KBBF 191715Z AUTO 14013G21KT 110V170 10SM FEW005 BKN029 18/15 A3020 RMK A01
KBBF 191655Z AUTO 12012G22KT 10SM FEW005 FEW015 OVC029 18/15 A3022 RMK A01
KBBF 191635Z AUTO 12011G23KT 10SM FEW015 BKN026 OVC030 18/15 A3024 RMK A01
KBBF 191615Z AUTO 13010G19KT 100V160 10SM SCT016 BKN025 OVC038 19/14 A3023 RMK A01
KBBF 191555Z AUTO 13009G17KT 10SM FEW016 SCT031 BKN038 19/14 A3024 RMK A01
KBBF 191535Z AUTO 12009G18KT 090V180 10SM FEW044 SCT055 BKN060 19/14 A3023 RMK A01
KBBF 191515Z AUTO 12010G16KT 090V160 10SM SCT035 BKN044 OVC050 18/14 A3023 RMK A01
KBBF 191455Z AUTO 14017KT 10SM FEW019 SCT027 BKN035 17/14 A3023 RMK A01
KBBF 191435Z AUTO 15015G20KT 10SM FEW018 SCT025 OVC033 18/13 A3023 RMK A01
KBBF 191415Z AUTO 14011G18KT 110V170 10SM SCT026 BKN031 OVC050 18/13 A3022 RMK A01
KBBF 191355Z AUTO 14012G18KT 10SM FEW029 BKN050 OVC060 19/12 A3022 RMK A01
KBBF 191335Z AUTO 15016G22KT 10SM SCT029 OVC060 19/12 A3019 RMK A01
KBBF 191315Z AUTO 14017G23KT 10SM SCT025 BKN030 OVC034 18/12 A3019 RMK A01
KBBF 191255Z AUTO 14017G22KT 10SM SCT027 BKN033 OVC065 18/12 A3019 RMK A01
KBBF 191235Z AUTO 15020KT 10SM BKN029 BKN035 OVC046 18/12 A3019 RMK A01
KBBF 191215Z AUTO 15021KT 10SM FEW025 BKN030 OVC046 18/12 A3020 RMK A01
KBBF 191155Z AUTO 14011G20KT 110V170 10SM OVC028 18/12 A3020 RMK A01
KBBF 191135Z AUTO 14015KT 10SM OVC029 18/12 A3021 RMK A01
KBBF 191115Z AUTO 15013G19KT 10SM BKN029 OVC050 18/12 A3021 RMK A01
KBBF 191055Z AUTO 14014G19KT 10SM OVC029 18/12 A3021 RMK A01
KBBF 191035Z AUTO 14014G21KT 10SM BKN029 OVC034 18/12 A3021 RMK A01
KBBF 191015Z AUTO 15016G23KT 10SM FEW026 OVC032 18/11 A3021 RMK A01
KBBF 190955Z AUTO 15017KT 10SM FEW025 BKN030 OVC034 18/11 A3022 RMK A01
KBBF 190935Z AUTO 14012G17KT 10SM BKN027 OVC032 18/11 A3023 RMK A01
KBBF 190915Z AUTO 15014KT 10SM BKN027 OVC032 17/11 A3024 RMK A01
KBBF 190855Z AUTO VRB11G17KT 10SM OVC028 18/11 A3024 RMK A01
KBBF 190835Z AUTO 13011G17KT 10SM OVC029 17/11 A3025 RMK A01
KBBF 190815Z AUTO 14012G19KT 10SM OVC031 17/10 A3026 RMK A01
KBBF 190755Z AUTO 14011G18KT 090V180 10SM BKN028 OVC034 17/10 A3027 RMK A01
KBBF 190735Z AUTO 14009G20KT 090V180 10SM BKN025 OVC030 17/10 A3027 RMK A01
KBBF 190715Z AUTO 12008G20KT 100V160 10SM OVC027 17/10 A3028 RMK A01
KBBF 190655Z AUTO 13009G19KT 10SM BKN029 OVC033 17/10 A3029 RMK A01
KBBF 190635Z AUTO 13008G17KT 090V160 10SM SCT027 OVC033 17/10 A3029 RMK A01
KBBF 190615Z AUTO 9.25000009G20KT 100V180 10SM BKN026 OVC032 16/09 A3031 RMK A01
KBBF 190555Z AUTO 13009G18KT 090V150 10SM BKN027 BKN032 OVC040 16/09 A3032 RMK A01
KBBF 190535Z AUTO 12008G19KT 100V160 10SM BKN027 OVC032 16/09 A3033 RMK A01
KBBF 190515Z AUTO 13010G20KT 10SM OVC027 16/09 A3033 RMK A01
KBBF 190455Z AUTO 13012G19KT 10SM OVC025 16/09 A3034 RMK A01
KBBF 190435Z AUTO 11016KT 10SM OVC026 15/09 A3034 RMK A01
KBBF 190415Z AUTO 10015G22KT 10SM OVC026 15/09 A3035 RMK A01
KBBF 190355Z AUTO 10016G23KT 090V160 10SM OVC025 14/09 A3036 RMK A01
KBBF 190335Z AUTO 10017G24KT 10SM OVC025 14/09 A3036 RMK A01
KBBF 190315Z AUTO 10015G25KT 10SM OVC025 14/08 A3035 RMK A01
KBBF 190255Z AUTO 09020G26KT 10SM OVC026 14/08 A3035 RMK A01
KBBF 190235Z AUTO 10017G24KT 10SM BKN025 OVC029 13/08 A3035 RMK A01
KBBF 190215Z AUTO 09018KT 10SM OVC027 13/08 A3036 RMK A01
KBBF 190155Z AUTO 08021KT 10SM OVC025 13/07 A3035 RMK A01
KBBF 190135Z AUTO 09021G27KT 10SM BKN026 OVC050 13/07 A3034 RMK A01
KBBF 190115Z AUTO 09020G29KT 10SM BKN023 OVC027 13/08 A3035 RMK A01
KBBF 190055Z AUTO 08022KT 10SM BKN024 OVC029 13/08 A3034 RMK A01
KBBF 190035Z AUTO 08022KT 10SM FEW020 BKN025 OVC029 12/07 A3034 RMK A01
KBBF 190015Z AUTO 08022KT 10SM FEW019 BKN024 OVC030 12/07 A3035 RMK A01
KBBF 182355Z AUTO 08020KT 10SM OVC024 12/07 A3035 RMK A01
KBBF 182335Z AUTO 08021KT OVC025 12/07 A3035 RMK A01
KBBF 182315Z AUTO 08022KT 10SM OVC023 12/07 A3035 RMK A01
KBBF 182255Z AUTO 08022KT 10SM OVC022 12/07 A3035 RMK A01
KBBF 182235Z AUTO 07022KT 10SM OVC023 12/07 A3035 RMK A01
KBBF 182215Z AUTO 07023KT 10SM OVC022 12/07 A3036 RMK A01
KBBF 182155Z AUTO 08020G27KT 10SM OVC022 12/07 A3036 RMK A01
KBBF 182135Z AUTO 07021G27KT 10SM OVC022 12/07 A3036 RMK A01
KBBF 182115Z AUTO 08021KT 10SM OVC023 12/07 A3036 RMK A01
KBBF 182055Z AUTO 08021KT 10SM OVC024 12/07 A3037 RMK A01
KBBF 182035Z AUTO 07022KT 10SM OVC024 12/06 A3037 RMK A01
KBBF 182015Z AUTO 07021KT 10SM OVC023 11/06 A3037 RMK A01
KBBF 181955Z AUTO 07020G25KT 10SM OVC023 12/06 A3039 RMK A01
KBBF 181935Z AUTO 07019G24KT 10SM OVC024 11/06 A3040 RMK A01
KBBF 181915Z AUTO 07018G23KT 10SM OVC025 11/06 A3041 RMK A01
KBBF 181855Z AUTO 08019KT 10SM OVC026 11/06 A3042 RMK A01
KBBF 181835Z AUTO 07020KT 10SM OVC025 11/06 A3044 RMK A01
KBBF 181815Z AUTO 07018KT 10SM OVC027 11/06 A3044 RMK A01
KBBF 181755Z AUTO 07016G23KT 10SM OVC026 11/06 A3046 RMK A01
KBBF 181735Z AUTO 08017KT 10SM OVC028 11/05 A3047 RMK A01
KBBF 181715Z AUTO 07017KT 10SM BKN027 OVC032 11/05 A3049 RMK A01
KBBF 181655Z AUTO 07016KT 10SM BKN027 OVC032 11/05 A3050 RMK A01
KBBF 181635Z AUTO 07015G20KT 10SM OVC030 11/04 A3051 RMK A01
KBBF 181615Z AUTO 07015KT 10SM OVC030 11/04 A3051 RMK A01
KBBF 181555Z AUTO 08014KT 10SM OVC030 11/04 A3052 RMK A01
KBBF 181535Z AUTO 07013G20KT 10SM OVC030 10/04 A3052 RMK A01
KBBF 181515Z AUTO 07014KT 10SM SCT016 OVC029 10/04 A3051 RMK A01
KBBF 181455Z AUTO 04018G23KT 10SM BKN015 BKN024 OVC030 09/06 A3050 RMK A01
KBBF 181435Z AUTO 04020KT 10SM FEW014 BKN021 OVC029 09/05 A3049 RMK A01
KBBF 181355Z AUTO 04020KT 10SM FEW019 BKN025 OVC031 09/05 A3049 RMK A01
KBBF 181335Z AUTO 04020KT 10SM SCT019 BKN025 OVC032 09/04 A3049 RMK A01
KBBF 181315Z AUTO 18.04000018KT 10SM SCT018 BKN029 OVC065 08/04 A3049 RMK A01
KBBF 181255Z AUTO 05020G25KT 10SM FEW017 SCT027 OVC065 08/04 A3047 RMK A01
KBBF 181235Z AUTO 05022KT 10SM FEW018 BKN024 OVC030 08/04 A3047 RMK A01
KBBF 181215Z AUTO 04019KT 10SM FEW018 BKN025 OVC030 08/03 A3047 RMK A01
KBBF 181155Z AUTO 04019KT 10SM SCT019 BKN025 OVC032 08/03 A3049 RMK A01
KBBF 181135Z AUTO 03016G21KT 10SM BKN023 OVC030 08/03 A3049 RMK A01
KBBF 181115Z AUTO 04018KT 10SM SCT021 BKN026 OVC065 08/03 A3048 RMK A01
KBBF 181055Z AUTO 05020KT 10SM SCT020 OVC027 08/04 A3047 RMK A01
KBBF 181035Z AUTO 04018KT 10SM FEW021 BKN026 OVC032 08/03 A3048 RMK A01
KBBF 181015Z AUTO 05015KT 10SM BKN025 OVC031 08/03 A3049 RMK A01
KBBF 180955Z AUTO 05016KT 10SM SCT025 BKN030 OVC070 08/03 A3049 RMK A01
KBBF 180935Z AUTO 06015G21KT 10SM SCT026 BKN032 OVC070 08/02 A3049 RMK A01
KBBF 180915Z AUTO 06015KT 10SM BKN025 BKN032 OVC070 08/02 A3050 RMK A01
KBBF 180855Z AUTO 05014KT 10SM SCT025 BKN029 OVC070 08/02 A3051 RMK A01
KBBF 180835Z AUTO 05014KT 10SM FEW023 BKN029 OVC070 08/02 A3052 RMK A01
KBBF 180815Z AUTO 04013KT 10SM BKN025 BKN031 OVC070 08/02 A3053 RMK A01
KBBF 180755Z AUTO 06011G17KT 10SM BKN025 OVC031 07/02 A3053 RMK A01
KBBF 180735Z AUTO 06013G18KT 10SM BKN026 OVC031 07/02 A3054 RMK A01
KBBF 180715Z AUTO 05013G22KT BKN025 OVC030 07/01 A3055 RMK A01
KBBF 180655Z AUTO 06015KT 10SM BKN025 BKN031 OVC075 07/01 A3055 RMK A01
KBBF 180635Z AUTO 05014G20KT 10SM FEW025 BKN029 OVC080 07/00 A3055 RMK A01
KBBF 180615Z AUTO 05015KT 10SM SCT027 BKN031 OVC070 07/00 A3056 RMK A01
KBBF 180555Z AUTO 06012G18KT 10SM BKN028 OVC070 07/00 A3058 RMK A01
KBBF 180535Z AUTO 07012KT 10SM BKN027 BKN032 OVC070 06/00 A3059 RMK A01
KBBF 180515Z AUTO 05015KT 10SM BKN028 OVC070 06/00 A3059 RMK A01
KBBF 180455Z AUTO 05015G20KT 10SM BKN028 OVC070 06/00 A3060 RMK A01
KBBF 180435Z AUTO 05015KT 10SM SCT027 BKN032 OVC065 06/M00 A3061 RMK A01
KBBF 180415Z AUTO 04013G19KT 10SM BKN029 BKN034 OVC065 06/M01 A3061 RMK A01
KBBF 180355Z AUTO 06013KT 10SM BKN028 BKN033 OVC070 06/M00 A3063 RMK A01
KBBF 180335Z AUTO 06012G17KT 10SM BKN027 OVC032 06/M00 A3063 RMK A01
KBBF 180315Z AUTO 03014KT 10SM BKN028 BKN034 OVC070 06/M01 A3063 RMK A01
KBBF 180255Z AUTO 05015KT 10SM BKN029 OVC070 06/M01 A3062 RMK A01
KBBF 180235Z AUTO 06014G21KT 10SM BKN029 OVC070 06/M01 A3060 RMK A01
KBBF 180215Z AUTO 06014KT 10SM SCT028 OVC070 06/M01 A3060 RMK A01
KBBF 180155Z AUTO 07014G21KT 10SM FEW029 OVC070 06/M01 A3059 RMK A01
KBBF 180135Z AUTO 05018G23KT 10SM FEW026 OVC070 05/M02 A3058 RMK A01
KBBF 180115Z AUTO 06018KT 10SM BKN026 BKN075 05/M02 A3058 RMK A01
KBBF 180055Z AUTO 04016KT 10SM SCT027 BKN090 05/M02 A3058 RMK A01
KBBF 180035Z AUTO 06014G23KT 10SM SCT026 SCT090 05/M02 A3058 RMK A01
KBBF 180015Z AUTO 05017KT 10SM FEW026 04/M02 A3057 RMK A01
KBBF 172355Z AUTO 05016G23KT 10SM FEW025 FEW095 04/M02 A3057 RMK A01
KBBF 172335Z AUTO 06018KT 10SM SCT025 BKN095 04/M02 A3057 RMK A01
KBBF 172315Z AUTO 05019KT 10SM BKN024 BKN100 04/M02 A3058 RMK A01
KBBF 172255Z AUTO 04014G20KT 10SM BKN023 BKN070 BKN095 03/M02 A3059 RMK A01
KBBF 172235Z AUTO 05014G21KT 10SM BKN022 OVC070 03/M02 A3059 RMK A01
KBBF 172215Z AUTO 05016KT 10SM BKN021 OVC070 03/M02 A3060 RMK A01
KBBF 172155Z AUTO 05015G22KT 10SM BKN021 BKN025 OVC070 03/M03 A3060 RMK A01
KBBF 172135Z AUTO 03014KT 10SM BKN021 BKN025 OVC070 02/M02 A3062 RMK A01
KBBF 172115Z AUTO 04015G22KT 10SM OVC020 02/M02 A3061 RMK A01
KBBF 172055Z AUTO 04016G24KT 10SM OVC020 02/M02 A3061 RMK A01
KBBF 172035Z AUTO 04016G23KT 10SM BKN018 OVC022 02/M02 A3062 RMK A01
KBBF 172015Z AUTO 04019KT 10SM OVC017 03/M01 A3062 RMK A01
KBBF 171955Z AUTO 04016G22KT 10SM OVC017 02/M02 A3062 RMK A01
KBBF 171935Z AUTO 03018KT 10SM OVC018 02/M02 A3062 RMK A01
KBBF 171915Z AUTO 04020KT 10SM OVC018 02/M02 A3063 RMK A01
KBBF 171855Z AUTO 04019KT 10SM OVC019 02/M02 A3065 RMK A01
KBBF 171835Z AUTO 04021G26KT 10SM BKN019 OVC023 02/M02 A3066 RMK A01
KBBF 171815Z AUTO 04020KT 10SM OVC020 02/M03 A3067 RMK A01
KBBF 171755Z AUTO 05018G25KT 10SM OVC020 02/M03 A3069 RMK A01
KBBF 171735Z AUTO 03022KT 10SM BKN020 OVC024 02/M03 A3070 RMK A01
KBBF 171715Z AUTO 04020KT 10SM BKN018 OVC022 02/M03 A3071 RMK A01
KBBF 171655Z AUTO 03020G26KT 10SM OVC020 02/M03 A3071 RMK A01
KBBF 171635Z AUTO 05020KT OVC019 02/M03 A3071 RMK A01
KBBF 171615Z AUTO 05022KT 10SM OVC020 01/M04 A3071 RMK A01
KBBF 171555Z AUTO 04023KT 10SM OVC019 01/M03 A3070 RMK A01
KBBF 171535Z AUTO 04024G30KT 10SM FEW017 OVC021 01/M04 A3070 RMK A01
KBBF 171515Z AUTO 05024G29KT 10SM BKN022 OVC085 01/M04 A3069 RMK A01
KBBF 171455Z AUTO 05024KT 10SM OVC021 01/M04 A3069 RMK A01
KBBF 171435Z AUTO 04024G30KT 10SM BKN022 OVC075 01/M04 A3069 RMK A01
KBBF 171415Z AUTO 04025G30KT 10SM BKN021 OVC075 01/M04 A3067 RMK A01
KBBF 171355Z AUTO 03026G33KT 10SM BKN021 OVC080 01/M04 A3066 RMK A01
KBBF 171335Z AUTO 03027KT 10SM BKN021 OVC075 01/M04 A3066 RMK A01
KBBF 171315Z AUTO 03025G32KT 10SM OVC021 01/M04 A3065 RMK A01
KBBF 171255Z AUTO 03026KT 10SM BKN021 OVC025 01/M04 A3065 RMK A01
KBBF 171235Z AUTO 04027KT 10SM BKN021 OVC026 01/M04 A3064 RMK A01
KBBF 171215Z AUTO 03027G33KT 10SM BKN017 OVC023 01/M03 A3063 RMK A01
KBBF 171155Z AUTO 04026KT 10SM BKN017 OVC024 02/M03 A3062 RMK A01
KBBF 171135Z AUTO 04021G30KT 10SM BKN019 OVC024 02/M03 A3063 RMK A01
KBBF 171115Z AUTO 04024G31KT 10SM BKN019 OVC024 01/M03 A3063 RMK A01
KBBF 171055Z AUTO 03025G31KT 10SM BKN019 OVC024 01/M03 A3062 RMK A01
KBBF 171035Z AUTO 02027G32KT 10SM BKN019 OVC024 02/M03 A3061 RMK A01
KBBF 171015Z AUTO 03025G30KT 10SM BKN021 BKN025 OVC075 01/M03 A3062 RMK A01
KBBF 170955Z AUTO 03025G31KT 10SM BKN019 OVC024 01/M03 A3062 RMK A01
KBBF 170935Z AUTO 02026KT 10SM BKN019 OVC024 01/M03 A3062 RMK A01
KBBF 170915Z AUTO 03026G31KT 10SM BKN018 OVC023 02/M02 A3063 RMK A01
KBBF 170855Z AUTO 03024G30KT 10SM OVC019 01/M03 A3063 RMK A01
KBBF 170835Z AUTO 02024G30KT 10SM BKN018 OVC023 02/M03 A3063 RMK A01
KBBF 170815Z AUTO 03023KT 10SM BKN019 OVC024 02/M03 A3063 RMK A01
KBBF 170755Z AUTO 02026G32KT 10SM OVC020 02/M03 A3063 RMK A01
KBBF 170735Z AUTO 03027G33KT 10SM BKN020 OVC026 02/M03 A3063 RMK A01
KBBF 170715Z AUTO 03026G32KT 10SM BKN020 OVC024 02/M03 A3064 RMK A01
KBBF 170655Z AUTO 03028KT 10SM BKN020 OVC025 02/M03 A3063 RMK A01
KBBF 170635Z AUTO 03022G29KT 10SM OVC021 02/M03 A3064 RMK A01
KBBF 170615Z AUTO 04026G33KT 10SM OVC021 02/M03 A3064 RMK A01
KBBF 170555Z AUTO 03027G34KT 10SM BKN019 OVC023 02/M03 A3064 RMK A01
KBBF 170535Z AUTO 03026G32KT 10SM OVC020 02/M02 A3064 RMK A01
KBBF 170515Z AUTO 02029G36KT 10SM BKN020 OVC025 02/M02 A3065 RMK A01
KBBF 170455Z AUTO 02026G32KT 10SM OVC020 02/M02 A3066 RMK A01
KBBF 170435Z AUTO 03028G34KT BKN018 OVC022 02/M02 A3064 RMK A01
KBBF 170415Z AUTO 03026G33KT 10SM BKN017 OVC023 02/M01 A3064 RMK A01
KBBF 170355Z AUTO 03031G37KT 10SM OVC016 02/M01 A3062 RMK A01
KBBF 170335Z AUTO 03031G37KT 10SM OVC017 02/M01 A3063 RMK A01
KBBF 170315Z AUTO 03031KT 10SM BKN015 OVC019 02/M01 A3063 RMK A01
KBBF 170255Z AUTO 02031G38KT 10SM BKN013 OVC018 02/M01 A3062 RMK A01
KBBF 170235Z AUTO 02029G37KT 10SM FEW009 OVC014 02/M00 A3061 RMK A01
KBBF 170215Z AUTO 03032G38KT 10SM OVC014 02/M00 A3060 RMK A01
KBBF 170155Z AUTO 03030G37KT 10SM OVC012 02/M00 A3060 RMK A01
KBBF 170135Z AUTO 03031G38KT 10SM BKN010 OVC015 02/M00 A3059 RMK A01
KBBF 170115Z AUTO 02031G37KT 10SM OVC012 02/M00 A3059 RMK A01
KBBF 170055Z AUTO 02031G39KT 10SM OVC014 02/M00 A3058 RMK A01
KBBF 170035Z AUTO 02032G38KT 10SM FEW008 OVC014 02/M01 A3058 RMK A01
KBBF 170015Z AUTO 03033G39KT 10SM BKN008 OVC012 02/M00 A3057 RMK A01
KBBF 162355Z AUTO 02032G39KT 10SM BKN009 OVC013 03/00 A3056 RMK A01
KBBF 162335Z AUTO 02033G39KT 10SM BKN011 BKN016 OVC020 03/00 A3055 RMK A01
KBBF 162310Z AUTO 02034G41KT 10SM OVC010 03/01 A3054 RMK A01
KBBF 162255Z AUTO 02029G37KT 10SM OVC010 02/00 A3055 RMK A01
KBBF 162235Z AUTO 02032G43KT 10SM OVC008 03/01 A3054 RMK A01
KBBF 162215Z AUTO 03033G40KT 10SM SCT006 OVC010 03/01 A3052 RMK A01
KBBF 162155Z AUTO 03036G42KT 10SM BKN007 OVC010 03/02 A3050 RMK A01
KBBF 162135Z AUTO 03034G43KT 10SM SCT005 OVC009 03/01 A3050 RMK A01
KBBF 162115Z AUTO 02034G42KT BKN008 OVC012 04/02 A3051 RMK A01
KBBF 162055Z AUTO 03032G43KT 10SM BKN009 OVC014 04/02 A3050 RMK A01
KBBF 162035Z AUTO 03033G39KT 10SM OVC010 04/02 A3051 RMK A01
KBBF 162015Z AUTO 03034G40KT 10SM BKN009 OVC013 04/02 A3049 RMK A01
KBBF 161955Z AUTO 03031G39KT 10SM SCT008 BKN012 BKN016 04/02 A3050 RMK A01
KBBF 161935Z AUTO 03031G42KT 10SM SCT008 BKN013 OVC025 04/02 A3049 RMK A01
KBBF 161915Z AUTO 04030G37KT 10SM BKN010 OVC015 04/02 A3050 RMK A01
KBBF 161855Z AUTO 03035KT 10SM BKN009 OVC013 05/03 A3051 RMK A01
KBBF 161835Z AUTO 03033G39KT 10SM BKN012 OVC016 05/03 A3051 RMK A01
KBBF 161815Z AUTO 03034KT 10SM BKN010 OVC015 05/03 A3051 RMK A01
KBBF 161755Z AUTO 03034G41KT 10SM SCT007 BKN011 OVC017 05/03 A3051 RMK A01
KBBF 161735Z AUTO 04035KT 10SM BKN008 BKN014 OVC018 05/04 A3051 RMK A01
KBBF 161715Z AUTO 03034KT 10SM SCT008 BKN014 OVC018 05/04 A3052 RMK A01
KBBF 161655Z AUTO 03033KT 10SM BKN009 OVC014 05/03 A3053 RMK A01
KBBF 161635Z AUTO 04032KT 10SM BKN008 OVC013 05/04 A3052 RMK A01
KBBF 161615Z AUTO 03034G39KT 10SM BKN008 OVC011 06/04 A3051 RMK A01
KBBF 161555Z AUTO 03031G38KT 10SM OVC007 06/04 A3050 RMK A01
KBBF 161535Z AUTO 03032G38KT 10SM OVC007 06/04 A3049 RMK A01
KBBF 161515Z AUTO 03032G39KT 10SM BKN006 OVC009 06/04 A3048 RMK A01
KBBF 161455Z AUTO 03035KT 10SM BKN006 OVC009 06/04 A3046 RMK A01
KBBF 161435Z AUTO 03035G42KT 10SM OVC006 06/04 A3045 RMK A01
KBBF 161415Z AUTO 03036G46KT 10SM OVC006 06/05 A3044 RMK A01
KBBF 161355Z AUTO 03036G42KT 10SM OVC006 06/05 A3042 RMK A01
KBBF 161335Z AUTO 02033G41KT 10SM OVC006 07/05 A3042 RMK A01
KBBF 161315Z AUTO 02037G46KT 10SM OVC007 07/05 A3040 RMK A01
KBBF 161255Z AUTO 02036G43KT 10SM OVC007 08/06 A3040 RMK A01
KBBF 161235Z AUTO 02038KT 10SM OVC006 08/06 A3038 RMK A01
KBBF 161215Z AUTO 03031G41KT 10SM OVC006 10/08 A3037 RMK A01
KBBF 161155Z AUTO 02036KT 10SM OVC006 09/07 A3035 RMK A01
KBBF 161135Z AUTO 02035G40KT 10SM OVC005 10/08 A3034 RMK A01
KBBF 161115Z AUTO 01034KT 10SM BKN005 OVC009 11/08 A3033 RMK A01
KBBF 161055Z AUTO 01036KT 10SM BKN006 BKN018 OVC095 13/07 A3032 RMK A01
KBBF 161035Z AUTO VRB05G22KT 10SM SCT036 BKN060 OVC095 20/12 A3032 RMK A01
KBBF 161015Z AUTO 18012KT 10SM SCT033 BKN039 OVC055 20/12 A3029 RMK A01
KBBF 160955Z AUTO 18012KT 10SM FEW033 BKN055 OVC095 20/12 A3029 RMK A01
KBBF 160935Z AUTO 18013KT 10SM OVC095 20/11 A3029 RMK A01
KBBF 160915Z AUTO 17014KT 10SM OVC095 20/11 A3028 RMK A01
KBBF 160855Z AUTO 17016KT 10SM OVC090 20/11 A3028 RMK A01
KBBF 160835Z AUTO 17014KT 10SM FEW034 OVC090 20/11 A3029 RMK A01
KBBF 160815Z AUTO 16014KT 10SM SCT036 SCT042 OVC090 20/11 A3029 RMK A01
KBBF 160755Z AUTO 17013KT 10SM FEW036 OVC090 20/11 A3029 RMK A01
KBBF 160735Z AUTO 16016KT 10SM FEW034 OVC090 19/11 A3029 RMK A01
KBBF 160715Z AUTO 17018KT 10SM OVC085 19/11 A3027 RMK A01
KBBF 160655Z AUTO 16019KT 10SM OVC085 19/11 A3027 RMK A01
KBBF 160635Z AUTO 16019KT 10SM FEW036 SCT041 OVC085 19/11 A3027 RMK A01
KBBF 160615Z AUTO 16018KT 10SM FEW036 OVC085 20/11 A3028 RMK A01
KBBF 160555Z AUTO 16018KT 10SM FEW037 OVC085 20/11 A3028 RMK A01
KBBF 160535Z AUTO 16017KT 10SM FEW037 OVC080 20/11 A3028 RMK A01
KBBF 160515Z AUTO 17016KT 10SM FEW038 OVC080 20/10 A3027 RMK A01
KBBF 160455Z AUTO 17016KT 10SM FEW038 OVC080 20/10 A3027 RMK A01
KBBF 160435Z AUTO 17016KT 10SM OVC080 20/10 A3027 RMK A01
KBBF 160415Z AUTO 17015KT 10SM FEW037 OVC075 20/11 A3028 RMK A01
KBBF 160355Z AUTO 16015KT 10SM OVC075 20/11 A3028 RMK A01
KBBF 160335Z AUTO 16018KT 10SM OVC075 20/11 A3027 RMK A01
KBBF 160315Z AUTO 16019KT 10SM OVC075 20/11 A3026 RMK A01
KBBF 160255Z AUTO 16018KT 10SM FEW035 FEW060 OVC075 19/11 A3026 RMK A01
KBBF 160235Z AUTO 16018KT 10SM FEW036 SCT050 OVC075 19/11 A3026 RMK A01
KBBF 160215Z AUTO 16016KT 10SM FEW037 FEW043 OVC070 19/11 A3025 RMK A01
KBBF 160155Z AUTO 17016KT 10SM FEW038 OVC075 20/11 A3025 RMK A01
KBBF 160135Z AUTO 16016KT 10SM OVC075 19/11 A3024 RMK A01
KBBF 160115Z AUTO 17016KT 10SM SCT039 SCT050 BKN075 19/10 A3024 RMK A01
KBBF 160055Z AUTO 16017KT 10SM BKN038 BKN045 OVC070 19/10 A3023 RMK A01
KBBF 160035Z AUTO 16017KT 10SM SCT038 BKN044 BKN070 19/10 A3023 RMK A01
KBBF 160015Z AUTO 16017KT 10SM FEW036 19/11 A3022 RMK A01
KBBF 152355Z AUTO 16019KT 10SM CLR 19/11 A3022 RMK A01
KBBF 152335Z AUTO 15021KT 10SM CLR 19/11 A3021 RMK A01
KBBF 152315Z AUTO 15019KT 10SM FEW036 19/10 A3022 RMK A01
KBBF 152255Z AUTO 16018KT 10SM FEW036 19/11 A3022 RMK A01
KBBF 152235Z AUTO 16017KT 10SM FEW034 FEW043 19/11 A3021 RMK A01
KBBF 152215Z AUTO 16017KT 10SM FEW035 SCT042 BKN047 19/11 A3022 RMK A01
KBBF 152155Z AUTO 16016KT 10SM FEW038 SCT045 19/11 A3022 RMK A01
KBBF 152135Z AUTO 16019KT 10SM FEW033 FEW039 FEW046 19/11 A3022 RMK A01
KBBF 152115Z AUTO 16020KT 10SM FEW033 SCT045 19/11 A3023 RMK A01
KBBF 152055Z AUTO 16018KT 10SM FEW035 SCT050 SCT060 19/11 A3023 RMK A01
KBBF 152035Z AUTO 16018KT 10SM SCT050 OVC065 19/11 A3023 RMK A01
KBBF 152015Z AUTO 16017KT 10SM FEW034 SCT055 OVC065 19/11 A3024 RMK A01
KBBF 151955Z AUTO 16017KT 10SM SCT033 SCT048 BKN070 19/11 A3025 RMK A01
KBBF 151935Z AUTO 16017KT 10SM FEW033 SCT039 SCT045 19/11 A3026 RMK A01
KBBF 151915Z AUTO 16017KT 10SM SCT034 SCT039 BKN047 19/11 A3027 RMK A01
KBBF 151855Z AUTO 16017KT 10SM FEW032 SCT047 BKN065 19/11 A3028 RMK A01
KBBF 151835Z AUTO 17016KT 10SM CLR 19/11 A3029 RMK A01
KBBF 151815Z AUTO 17015KT 10SM FEW042 19/10 A3030 RMK A01
KBBF 151755Z AUTO 17016KT 10SM FEW041 SCT049 19/10 A3031 RMK A01
KBBF 151735Z AUTO 17016KT 10SM FEW034 FEW040 SCT050 19/10 A3032 RMK A01
KBBF 151715Z AUTO 17015G20KT 10SM SCT033 BKN040 BKN046 19/11 A3033 RMK A01
KBBF 151655Z AUTO 16016KT 10SM FEW034 BKN050 BKN060 19/10 A3034 RMK A01
KBBF 151635Z AUTO 17016KT 10SM FEW033 FEW048 FEW055 19/11 A3034 RMK A01
KBBF 151615Z AUTO 16016KT 10SM FEW032 19/10 A3034 RMK A01
KBBF 151555Z AUTO 16015KT 10SM SCT060 19/10 A3034 RMK A01
KBBF 151535Z AUTO 16014KT 10SM BKN060 18/10 A3034 RMK A01
KBBF 151515Z AUTO 16015KT 10SM BKN060 18/10 A3033 RMK A01
KBBF 151455Z AUTO 15016KT 10SM BKN060 18/10 A3033 RMK A01
KBBF 151435Z AUTO 16017KT 10SM FEW034 BKN060 18/10 A3032 RMK A01
KBBF 151415Z AUTO 16015KT 10SM FEW032 FEW038 OVC055 18/10 A3032 RMK A01
KBBF 151355Z AUTO 16015KT 10SM FEW032 FEW038 SCT050 18/10 A3032 RMK A01
KBBF 151335Z AUTO 16017KT 10SM CLR 18/10 A3032 RMK A01
KBBF 151315Z AUTO 16014KT 10SM FEW032 FEW044 FEW050 18/10 A3032 RMK A01
KBBF 151255Z AUTO 16015KT 10SM SCT033 BKN043 OVC050 18/10 A3032 RMK A01
KBBF 151235Z AUTO 15015KT 10SM SCT034 BKN043 OVC049 18/10 A3032 RMK A01
KBBF 151215Z AUTO 16014KT 10SM SCT033 BKN043 BKN050 17/10 A3032 RMK A01
KBBF 151155Z AUTO 16015KT 10SM FEW032 BKN047 BKN055 17/10 A3031 RMK A01
KBBF 151135Z AUTO 16014KT 10SM SCT048 17/10 A3031 RMK A01
KBBF 151115Z AUTO 16015KT 10SM FEW037 SCT047 BKN055 17/09 A3031 RMK A01
KBBF 151055Z AUTO 16015KT 10SM FEW036 BKN047 OVC055 17/10 A3031 RMK A01
KBBF 151035Z AUTO 16015KT 10SM FEW034 BKN042 OVC050 17/09 A3032 RMK A01
KBBF 151015Z AUTO 16015KT 10SM SCT036 BKN043 BKN050 17/09 A3032 RMK A01
KBBF 150955Z AUTO 16015KT 10SM SCT033 BKN039 OVC055 17/09 A3033 RMK A01
KBBF 150935Z AUTO 16015KT 10SM BKN037 OVC043 17/09 A3033 RMK A01
KBBF 150915Z AUTO 16015KT 10SM SCT034 OVC042 17/09 A3034 RMK A01
KBBF 150855Z AUTO 17015KT 10SM BKN034 OVC042 17/09 A3034 RMK A01
KBBF 150835Z AUTO 16013KT 10SM FEW034 BKN041 OVC050 17/09 A3034 RMK A01
KBBF 150815Z AUTO 16015KT 10SM SCT037 BKN046 17/09 A3035 RMK A01
KBBF 150755Z AUTO 15014G19KT 10SM FEW034 BKN042 OVC048 17/08 A3036 RMK A01
KBBF 150735Z AUTO 16014KT 10SM FEW033 SCT042 OVC049 17/08 A3036 RMK A01
KBBF 150715Z AUTO 15012KT 10SM FEW042 BKN050 17/08 A3037 RMK A01
KBBF 150655Z AUTO 15014KT 10SM SCT044 BKN050 16/08 A3037 RMK A01
KBBF 150635Z AUTO 15014KT 10SM SCT045 BKN050 17/08 A3037 RMK A01
KBBF 150615Z AUTO 15013KT 10SM FEW043 BKN050 BKN055 16/08 A3038 RMK A01
KBBF 150555Z AUTO 15014G19KT 10SM SCT048 SCT055 17/08 A3038 RMK A01
KBBF 150535Z AUTO 15014KT 10SM BKN050 17/08 A3038 RMK A01
KBBF 150515Z AUTO 14010G18KT 360V160 10SM BKN050 17/08 A3039 RMK A01
KBBF 150455Z AUTO 14010G18KT 090V260 10SM BKN050 OVC055 17/08 A3039 RMK A01
KBBF 150435Z AUTO 14012G18KT 100V160 10SM SCT048 BKN055 17/08 A3040 RMK A01
KBBF 150415Z AUTO 12007G17KT 080V160 10SM SCT047 OVC055 17/08 A3040 RMK A01
KBBF 150355Z AUTO 12008G19KT 080V160 10SM SCT041 BKN047 BKN055 17/08 A3040 RMK A01
KBBF 150335Z AUTO 14009G18KT 100V160 10SM SCT036 BKN047 BKN055 17/08 A3040 RMK A01
KBBF 150315Z AUTO 15013G19KT 10SM FEW034 OVC046 17/08 A3040 RMK A01
KBBF 150255Z AUTO 15014G19KT 10SM FEW033 BKN043 OVC049 16/08 A3040 RMK A01
KBBF 150235Z AUTO 15013KT 10SM SCT035 OVC047 16/08 A3040 RMK A01
KBBF 150215Z AUTO 14012KT 10SM FEW035 OVC047 17/08 A3040 RMK A01
KBBF 150155Z AUTO 14010G17KT 110V170 10SM FEW036 SCT044 OVC050 17/08 A3040 RMK A01
KBBF 150135Z AUTO 14009G15KT 10SM FEW035 SCT042 OVC049 17/08 A3040 RMK A01
KBBF 150115Z AUTO 14009G16KT 10SM FEW036 BKN044 OVC050 17/08 A3040 RMK A01
KBBF 150055Z AUTO 12008G13KT 100V160 10SM BKN039 OVC045 17/08 A3040 RMK A01
KBBF 150035Z AUTO VRB06G13KT 10SM OVC042 17/07 A3040 RMK A01
KBBF 150015Z AUTO VRB06G14KT 040V160 10SM BKN038 BKN044 16/07 A3039 RMK A01
KBBF 142355Z AUTO 13007G12KT 090V170 10SM BKN041 17/07 A3039 RMK A01
KBBF 142335Z AUTO 12007KT 070V160 10SM SCT040 SCT046 17/07 A3039 RMK A01
KBBF 142315Z AUTO VRB04G12KT 10SM SCT040 17/07 A3039 RMK A01
KBBF 142255Z AUTO 13007G12KT 090V170 10SM SCT039 17/07 A3039 RMK A01
KBBF 142235Z AUTO VRB05G11KT 10SM SCT039 SCT047 17/07 A3039 RMK A01
KBBF 142215Z AUTO VRB04G12KT 10SM SCT040 SCT047 17/07 A3039 RMK A01
KBBF 142155Z AUTO VRB05KT 10SM BKN041 BKN047 17/07 A3039 RMK A01
KBBF 142135Z AUTO VRB04KT 10SM BKN042 BKN047 17/07 A3039 RMK A01
KBBF 142115Z AUTO VRB05KT 10SM BKN043 BKN049 17/06 A3040 RMK A01
KBBF 142055Z AUTO VRB03KT 10SM BKN043 17/06 A3040 RMK A01
KBBF 142035Z AUTO VRB03KT 10SM BKN042 17/06 A3041 RMK A01
KBBF 142015Z AUTO VRB06KT 10SM FEW042 17/06 A3042 RMK A01
KBBF 141955Z AUTO 17008KT 10SM SCT042 17/05 A3042 RMK A01
KBBF 141935Z AUTO VRB04KT 10SM CLR 17/06 A3043 RMK A01
KBBF 141915Z AUTO VRB05KT 10SM CLR 16/05 A3045 RMK A01
KBBF 141850Z AUTO 14008KT 10SM FEW045 17/05 A3046 RMK A01
KBBF 141835Z AUTO 16007KT 10SM SCT044 16/05 A3047 RMK A01
KBBF 141815Z AUTO VRB04G11KT 10SM FEW043 16/06 A3049 RMK A01
KBBF 141755Z AUTO 16010KT 10SM BKN043 16/05 A3050 RMK A01
KBBF 141735Z AUTO 15007G13KT 10SM BKN043 16/05 A3051 RMK A01
KBBF 141715Z AUTO 17008G14KT 10SM SCT042 16/05 A3051 RMK A01
KBBF 141655Z AUTO 15010KT 060V160 10SM BKN042 16/05 A3052 RMK A01
KBBF 141635Z AUTO 16010KT 10SM SCT042 16/05 A3052 RMK A01
KBBF 141615Z AUTO 16010KT 10SM SCT043 16/04 A3052 RMK A01
KBBF 141555Z AUTO 16010KT 10SM SCT043 16/04 A3052 RMK A01
KBBF 141535Z AUTO VRB05G12KT 10SM FEW043 16/04 A3051 RMK A01
KBBF 141515Z AUTO 16011KT 10SM CLR 16/04 A3051 RMK A01
KBBF 141455Z AUTO VRB05G11KT 10SM FEW043 16/04 A3051 RMK A01
KBBF 141435Z AUTO 10004G10KT 10SM FEW042 16/04 A3051 RMK A01
KBBF 141415Z AUTO 11008KT 10SM FEW044 15/04 A3050 RMK A01
KBBF 141355Z AUTO 11007KT 080V180 10SM FEW043 15/05 A3049 RMK A01
KBBF 141335Z AUTO 10009G15KT 080V150 10SM CLR 15/04 A3049 RMK A01
KBBF 141315Z AUTO 11008KT 070V140 10SM CLR 15/04 A3049 RMK A01
KBBF 141255Z AUTO 11008KT 080V150 10SM FEW037 15/05 A3048 RMK A01
KBBF 141235Z AUTO VRB06G13KT 10SM FEW035 SCT040 SCT050 14/04 A3048 RMK A01
KBBF 141215Z AUTO 10008KT 070V130 10SM FEW036 FEW042 14/04 A3047 RMK A01
KBBF 141155Z AUTO 10008KT 10SM FEW034 14/04 A3047 RMK A01
KBBF 141135Z AUTO 10009G14KT 10SM FEW034 14/04 A3047 RMK A01
KBBF 141115Z AUTO VRB06G13KT 10SM FEW032 14/04 A3047 RMK A01
KBBF 141055Z AUTO 10009KT 10SM FEW030 FEW035 14/04 A3047 RMK A01
KBBF 141035Z AUTO 10008KT 080V150 10SM FEW031 13/04 A3046 RMK A01
KBBF 141015Z AUTO 10009KT 10SM CLR 13/04 A3047 RMK A01
KBBF 140955Z AUTO 11008G13KT 10SM CLR 13/04 A3047 RMK A01
KBBF 140935Z AUTO 09009G15KT 10SM CLR 13/03 A3048 RMK A01
KBBF 140915Z AUTO 08009KT 10SM CLR 13/03 A3049 RMK A01
KBBF 140855Z AUTO 09011KT 10SM FEW030 FEW050 13/03 A3049 RMK A01
KBBF 140835Z AUTO 09009KT 10SM FEW030 13/04 A3049 RMK A01
KBBF 140815Z AUTO 09011KT 10SM CLR 13/03 A3049 RMK A01
KBBF 140755Z AUTO 08012KT 10SM CLR 13/03 A3049 RMK A01
KBBF 140735Z AUTO 09011G16KT 10SM CLR 13/03 A3050 RMK A01
KBBF 140715Z AUTO 09010G16KT 10SM CLR 13/03 A3050 RMK A01
KBBF 140655Z AUTO 09010G16KT 10SM CLR 13/02 A3051 RMK A01
KBBF 140635Z AUTO 08010KT 10SM CLR 13/02 A3052 RMK A01
KBBF 140615Z AUTO 08013KT 10SM CLR 13/02 A3052 RMK A01
KBBF 140555Z AUTO 06012KT 10SM CLR 13/03 A3053 RMK A01
KBBF 140535Z AUTO 07013KT 10SM CLR 13/02 A3053 RMK A01
KBBF 140515Z AUTO 07013KT 10SM CLR 13/03 A3054 RMK A01
KBBF 140455Z AUTO 08011KT 10SM CLR 13/02 A3054 RMK A01
KBBF 140435Z AUTO 05012KT 10SM CLR 13/01 A3054 RMK A01
KBBF 140415Z AUTO 07009G15KT 10SM CLR 12/01 A3054 RMK A01
KBBF 140355Z AUTO 06011KT 10SM CLR 12/01 A3054 RMK A01
KBBF 140335Z AUTO 06008KT 10SM CLR 12/01 A3053 RMK A01
KBBF 140315Z AUTO 07007KT 10SM CLR 12/01 A3053 RMK A01
KBBF 140255Z AUTO 06010KT 10SM CLR 12/00 A3053 RMK A01
KBBF 140235Z AUTO 06010KT 10SM CLR 12/01 A3053 RMK A01
KBBF 140215Z AUTO 05006KT 10SM CLR 12/01 A3053 RMK A01
KBBF 140155Z AUTO 06006KT 10SM CLR 12/00 A3053 RMK A01
KBBF 140135Z AUTO 05006KT 10SM CLR 12/M00 A3052 RMK A01
KBBF 140115Z AUTO 05007KT 10SM CLR 12/00 A3052 RMK A01
KBBF 140055Z AUTO 04010KT 10SM CLR 11/00 A3052 RMK A01
KBBF 140035Z AUTO 04009KT 10SM CLR 11/M01 A3051 RMK A01
KBBF 140015Z AUTO 05009KT 10SM CLR 11/00 A3051 RMK A01
KBBF 132355Z AUTO 05010KT 10SM CLR 11/00 A3051 RMK A01
KBBF 132335Z AUTO 04011KT 10SM CLR 11/00 A3050 RMK A01
KBBF 132315Z AUTO 05010KT 10SM CLR 11/00 A3050 RMK A01
KBBF 132255Z AUTO 04009KT 10SM CLR 11/M00 A3050 RMK A01
KBBF 132235Z AUTO 05011KT 10SM CLR 11/M00 A3050 RMK A01
KBBF 132215Z AUTO 03014KT 10SM CLR 10/M01 A3050 RMK A01
KBBF 132155Z AUTO 05016KT 10SM CLR 10/M01 A3050 RMK A01
KBBF 132135Z AUTO 05017KT 10SM CLR 10/M00 A3050 RMK A01
KBBF 132115Z AUTO 05017KT 10SM CLR 10/01 A3050 RMK A01
KBBF 132055Z AUTO 05016KT 10SM CLR 10/01 A3050 RMK A01
KBBF 132035Z AUTO 05017KT 10SM CLR 10/01 A3049 RMK A01
KBBF 132015Z AUTO 04018KT 10SM CLR 09/01 A3050 RMK A01
KBBF 131955Z AUTO 04018G24KT 10SM CLR 10/01 A3051 RMK A01
KBBF 131935Z AUTO 04018KT 10SM CLR 10/01 A3051 RMK A01
KBBF 131915Z AUTO 04019KT 10SM CLR 10/01 A3051 RMK A01
KBBF 131855Z AUTO 04019KT CLR 10/01 A3052 RMK A01
KBBF 131835Z AUTO 05017KT 10SM CLR 10/01 A3053 RMK A01
KBBF 131815Z AUTO 05019G25KT 10SM CLR 10/01 A3054 RMK A01
KBBF 131755Z AUTO 04020KT 10SM CLR 10/02 A3054 RMK A01
KBBF 131735Z AUTO 05018G24KT 10SM CLR 10/02 A3054 RMK A01
KBBF 131715Z AUTO 06019KT 10SM CLR 10/02 A3054 RMK A01
KBBF 131655Z AUTO 05019KT 10SM CLR 09/02 A3053 RMK A01
KBBF 131635Z AUTO 05019G25KT 10SM CLR 09/02 A3054 RMK A01
KBBF 131615Z AUTO 06020KT 10SM CLR 09/02 A3053 RMK A01
KBBF 131555Z AUTO 04022KT 10SM CLR 09/02 A3052 RMK A01
KBBF 131535Z AUTO 05023KT 10SM CLR 09/02 A3052 RMK A01
KBBF 131515Z AUTO 04023KT 10SM CLR 09/01 A3050 RMK A01
KBBF 131455Z AUTO 05023KT 10SM CLR 09/02 A3050 RMK A01
KBBF 131435Z AUTO 05021KT 10SM CLR 09/02 A3049 RMK A01
KBBF 131415Z AUTO 05023KT 10SM CLR 09/02 A3047 RMK A01
KBBF 131355Z AUTO 04022KT 10SM CLR 09/03 A3046 RMK A01
KBBF 131335Z AUTO 04022G27KT 10SM CLR 09/03 A3045 RMK A01
KBBF 131315Z AUTO 05024KT 10SM CLR 10/04 A3044 RMK A01
KBBF 131255Z AUTO 05020G27KT 10SM CLR 09/03 A3043 RMK A01
KBBF 131235Z AUTO 05023KT 10SM FEW019 10/03 A3042 RMK A01
KBBF 131215Z AUTO 04023KT 10SM CLR 10/03 A3041 RMK A01
KBBF 131155Z AUTO 04023KT CLR 10/04 A3040 RMK A01
KBBF 131135Z AUTO 05023KT 10SM FEW022 10/04 A3039 RMK A01
KBBF 131115Z AUTO 05021KT 10SM FEW022 10/03 A3038 RMK A01
KBBF 131055Z AUTO 05020G26KT 10SM FEW021 10/04 A3038 RMK A01
KBBF 131035Z AUTO 05021KT 10SM CLR 10/03 A3037 RMK A01
KBBF 131015Z AUTO 06021G27KT 10SM CLR 10/03 A3036 RMK A01
KBBF 130955Z AUTO 05020G26KT 10SM CLR 10/03 A3036 RMK A01
KBBF 130935Z AUTO 06020KT 10SM CLR 10/02 A3036 RMK A01
KBBF 130915Z AUTO 06021KT 10SM CLR 10/02 A3035 RMK A01
KBBF 130855Z AUTO 05022KT 10SM CLR 10/02 A3035 RMK A01
KBBF 130835Z AUTO 05023KT 10SM CLR 10/02 A3034 RMK A01
KBBF 130815Z AUTO 05022KT 10SM CLR 10/02 A3034 RMK A01
KBBF 130755Z AUTO 04023KT 10SM CLR 10/01 A3033 RMK A01
KBBF 130735Z AUTO 05022G28KT 10SM CLR 10/01 A3033 RMK A01
KBBF 130715Z AUTO 05020G26KT 10SM CLR 11/01 A3033 RMK A01
KBBF 130655Z AUTO 05023KT 10SM CLR 11/00 A3032 RMK A01
KBBF 130635Z AUTO 04023KT 10SM CLR 11/00 A3032 RMK A01
KBBF 130615Z AUTO 04024G29KT 10SM CLR 11/00 A3032 RMK A01
KBBF 130555Z AUTO 04025KT 10SM CLR 11/00 A3031 RMK A01
KBBF 130535Z AUTO 04025KT 10SM CLR 12/M00 A3030 RMK A01
KBBF 130515Z AUTO 05024G32KT 10SM CLR 12/M01 A3030 RMK A01
KBBF 130455Z AUTO 04022KT 10SM CLR 12/00 A3030 RMK A01
KBBF 130435Z AUTO 04023KT 10SM CLR 12/M01 A3030 RMK A01
KBBF 130415Z AUTO 04023KT 10SM CLR 12/M01 A3029 RMK A01
KBBF 130355Z AUTO 04022KT 10SM CLR 12/M01 A3028 RMK A01
KBBF 130335Z AUTO 04023KT 10SM CLR 12/M01 A3027 RMK A01
KBBF 130315Z AUTO 03023KT 10SM CLR 13/M02 A3027 RMK A01
KBBF 130255Z AUTO 03023KT 10SM CLR 13/M02 A3026 RMK A01
KBBF 130235Z AUTO 03021G28KT 10SM CLR 13/M02 A3025 RMK A01
KBBF 130215Z AUTO 03023KT 10SM CLR 13/M02 A3025 RMK A01
KBBF 130155Z AUTO 03022KT 10SM CLR 13/M02 A3024 RMK A01
KBBF 130135Z AUTO 03021KT 10SM CLR 13/M02 A3024 RMK A01
KBBF 130115Z AUTO 03021G27KT 10SM CLR 13/M04 A3023 RMK A01
KBBF 130055Z AUTO 01019G25KT 10SM CLR 13/M03 A3023 RMK A01
KBBF 130035Z AUTO 02021G26KT 10SM CLR 13/M04 A3022 RMK A01
KBBF 130015Z AUTO 02023KT 10SM CLR 13/M04 A3021 RMK A01
KBBF 122355Z AUTO 02022KT 10SM CLR 13/M04 A3021 RMK A01
KBBF 122335Z AUTO 02022KT 10SM CLR 13/M03 A3020 RMK A01
KBBF 122315Z AUTO 01021KT 10SM CLR 13/M02 A3020 RMK A01
KBBF 122255Z AUTO 01018G24KT 10SM CLR 12/M01 A3019 RMK A01
KBBF 122235Z AUTO 01020KT 10SM CLR 12/M02 A3018 RMK A01
KBBF 122215Z AUTO 01021KT 10SM CLR 12/M02 A3018 RMK A01
KBBF 122155Z AUTO 01020G26KT 10SM CLR 11/M02 A3018 RMK A01
KBBF 122135Z AUTO 36020KT 10SM CLR 11/M02 A3019 RMK A01
KBBF 122115Z AUTO 36021KT 10SM CLR 11/M02 A3019 RMK A01
KBBF 122055Z AUTO 01021G27KT 10SM CLR 11/M02 A3019 RMK A01
KBBF 122035Z AUTO 36023KT 10SM CLR 10/M01 A3019 RMK A01
KBBF 122015Z AUTO 35019G26KT 10SM CLR 10/M00 A3020 RMK A01
KBBF 121955Z AUTO 36021KT 10SM CLR 10/M01 A3020 RMK A01
KBBF 121935Z AUTO 36021G28KT 10SM CLR 10/M00 A3020 RMK A01
KBBF 121915Z AUTO 36023KT 10SM CLR 09/M01 A3021 RMK A01
KBBF 121855Z AUTO 01022KT 10SM CLR 09/M01 A3022 RMK A01
KBBF 121835Z AUTO 01024KT 10SM CLR 09/M01 A3023 RMK A01
KBBF 121815Z AUTO 01025G30KT 10SM CLR 09/M00 A3024 RMK A01
KBBF 121755Z AUTO 36025KT 10SM CLR 08/M01 A3025 RMK A01
KBBF 121735Z AUTO 36027KT 10SM CLR 08/M01 A3026 RMK A01
KBBF 121715Z AUTO 36027G34KT 10SM CLR 08/M01 A3026 RMK A01
KBBF 121655Z AUTO 36029KT 10SM CLR 08/M01 A3027 RMK A01
KBBF 121635Z AUTO 36030KT 10SM CLR 08/M01 A3027 RMK A01
KBBF 121615Z AUTO 36030G36KT 10SM CLR 08/M02 A3026 RMK A01
KBBF 121555Z AUTO 36031G37KT 10SM CLR 08/M01 A3026 RMK A01
KBBF 121535Z AUTO 36030KT 10SM CLR 08/M02 A3026 RMK A01
KBBF 121515Z AUTO 36031KT 10SM CLR 08/M02 A3025 RMK A01
KBBF 121455Z AUTO 36029G36KT 10SM CLR 08/M02 A3025 RMK A01
KBBF 121435Z AUTO 35032G40KT 10SM CLR 08/M01 A3024 RMK A01
KBBF 121415Z AUTO 36031G38KT 10SM CLR 08/M02 A3023 RMK A01
KBBF 121355Z AUTO 36034G42KT 10SM CLR 08/M02 A3021 RMK A01
KBBF 121335Z AUTO 01035G44KT 10SM CLR 08/M03 A3021 RMK A01
KBBF 121315Z AUTO 01036G44KT 10SM CLR 08/M02 A3019 RMK A01
KBBF 121255Z AUTO 01038G44KT 10SM CLR 09/M03 A3019 RMK A01
KBBF 121235Z AUTO 36037G44KT 10SM CLR 09/M03 A3018 RMK A01
KBBF 121215Z AUTO 36037G46KT 10SM CLR 09/M02 A3018 RMK A01
KBBF 121155Z AUTO 36037G46KT 10SM CLR 09/M04 A3017 RMK A01
KBBF 121135Z AUTO 35038G44KT 10SM FEW027 09/M04 A3018 RMK A01
KBBF 121115Z AUTO 35038KT 10SM FEW028 09/M04 A3018 RMK A01
KBBF 121055Z AUTO 34034G42KT 10SM FEW027 09/M03 A3018 RMK A01
KBBF 121035Z AUTO 35035G41KT 10SM SCT028 SCT034 09/M03 A3017 RMK A01
KBBF 121015Z AUTO 34034G41KT 10SM SCT028 SCT033 09/M04 A3018 RMK A01
KBBF 120955Z AUTO 34035G42KT 10SM FEW027 SCT033 10/M04 A3017 RMK A01
KBBF 120935Z AUTO 34032G39KT 10SM SCT030 10/M04 A3017 RMK A01
KBBF 120915Z AUTO 34036G44KT 10SM SCT028 SCT033 09/M04 A3016 RMK A01
KBBF 120855Z AUTO 35033G44KT 10SM SCT028 SCT033 10/M04 A3016 RMK A01
KBBF 120835Z AUTO 34036G43KT 10SM BKN028 BKN033 10/M04 A3016 RMK A01
KBBF 120815Z AUTO 34037G48KT 10SM SCT028 10/M01 A3014 RMK A01
KBBF 120755Z AUTO 34041KT 10SM SCT026 SCT032 10/M02 A3013 RMK A01
KBBF 120735Z AUTO 34035G42KT 10SM BKN029 11/M01 A3013 RMK A01
KBBF 120715Z AUTO 34040KT 10SM BKN026 BKN031 11/M02 A3012 RMK A01
KBBF 120655Z AUTO 35038G45KT 10SM BKN026 OVC031 11/M01 A3012 RMK A01
KBBF 120635Z AUTO 35039G48KT 10SM BKN024 BKN028 11/M01 A3011 RMK A01
KBBF 120615Z AUTO 36040G48KT 10SM BKN024 BKN029 11/00 A3011 RMK A01
KBBF 120555Z AUTO 35037G45KT 10SM BKN026 BKN031 12/00 A3011 RMK A01
KBBF 120535Z AUTO 35040G45KT BKN027 BKN032 11/M00 A3011 RMK A01
KBBF 120515Z AUTO 35043G49KT 10SM BKN027 BKN031 11/00 A3010 RMK A01
KBBF 120455Z AUTO 35042G52KT 10SM BKN030 11/M00 A3010 RMK A01
KBBF 120435Z AUTO 35043G52KT 10SM BKN027 12/01 A3009 RMK A01
KBBF 120415Z AUTO 35044G54KT 10SM FEW019 BKN027 11/02 A3007 RMK A01
KBBF 120355Z AUTO 35042G54KT 10SM FEW019 BKN027 BKN039 11/03 A3007 RMK A01
KBBF 120335Z AUTO 34044G53KT 10SM SCT020 SCT027 BKN055 11/02 A3007 RMK A01
KBBF 120315Z AUTO 34042G49KT 10SM BKN019 BKN031 BKN044 12/04 A3006 RMK A01
KBBF 120255Z AUTO 34043G50KT 10SM SCT020 SCT026 BKN048 12/03 A3003 RMK A01
KBBF 120235Z AUTO 34042G50KT 10SM FEW017 SCT022 BKN026 13/05 A3001 RMK A01
KBBF 120215Z AUTO 34044G50KT 10SM SCT020 BKN029 OVC043 15/06 A2998 RMK A01
KBBF 120155Z AUTO 35044G51KT 10SM SCT023 BKN031 OVC050 16/06 A2997 RMK A01
KBBF 120135Z AUTO 35044G52KT 10SM OVC022 17/06 A2993 RMK A01
KBBF 120115Z AUTO 36043G49KT 10SM BKN020 OVC027 18/07 A2991 RMK A01
KBBF 120055Z AUTO 36045KT 10SM BKN019 BKN026 BKN041 19/07 A2988 RMK A01
KBBF 120035Z AUTO 34041G47KT 10SM FEW060 FEW070 22/10 A2986 RMK A01
KBBF 120015Z AUTO 32023KT 10SM CLR 22/12 A2984 RMK A01
KBBF 112355Z AUTO 31023KT 10SM CLR 22/12 A2983 RMK A01
KBBF 112335Z AUTO 31022KT 10SM CLR 22/12 A2981 RMK A01
KBBF 112315Z AUTO 31022KT 10SM CLR 22/12 A2981 RMK A01
KBBF 112255Z AUTO 30021KT 10SM CLR 22/13 A2980 RMK A01
KBBF 112235Z AUTO 30021KT 10SM CLR 22/14 A2979 RMK A01
KBBF 112215Z AUTO 28019KT 10SM CLR 22/15 A2978 RMK A01
KBBF 112155Z AUTO 27019KT 10SM CLR 22/16 A2977 RMK A01
KBBF 112135Z AUTO 27018KT 10SM CLR 21/16 A2976 RMK A01
KBBF 112115Z AUTO 27020KT 10SM CLR 21/17 A2976 RMK A01
KBBF 112055Z AUTO 27019KT 10SM CLR 21/17 A2975 RMK A01
KBBF 112035Z AUTO 27017KT 10SM CLR 20/17 A2975 RMK A01
KBBF 112015Z AUTO 28023KT 10SM CLR 21/17 A2976 RMK A01
KBBF 111955Z AUTO 28020KT 10SM CLR 21/17 A2976 RMK A01
KBBF 111935Z AUTO 27013KT 10SM FEW018 FEW029 FEW035 20/17 A2976 RMK A01
KBBF 111915Z AUTO 27013G20KT 10SM FEW005 SCT018 BKN028 20/17 A2977 RMK A01
KBBF 111855Z AUTO 25014KT 10SM FEW027 BKN035 BKN043 22/19 A2978 RMK A01
KBBF 111835Z AUTO 22013KT 10SM SCT035 BKN040 BKN055 22/19 A2978 RMK A01
KBBF 111815Z AUTO 21015KT 10SM FEW036 FEW055 BKN080 22/18 A2978 RMK A01
KBBF 111755Z AUTO 20015KT 10SM FEW028 SCT070 BKN080 22/18 A2979 RMK A01
KBBF 111735Z AUTO 21014KT 10SM FEW049 SCT060 OVC070 22/18 A2981 RMK A01
KBBF 111715Z AUTO 22013KT 10SM FEW033 BKN055 OVC065 22/18 A2982 RMK A01
KBBF 111655Z AUTO 22013KT 10SM FEW036 SCT042 BKN050 22/18 A2983 RMK A01
KBBF 111635Z AUTO 21012KT 10SM SCT041 OVC050 22/18 A2982 RMK A01
KBBF 111615Z AUTO 19016KT 10SM FEW044 BKN050 OVC060 23/18 A2981 RMK A01
KBBF 111555Z AUTO 19018KT 10SM FEW044 SCT050 OVC060 22/18 A2979 RMK A01
KBBF 111535Z AUTO 19020KT 10SM OVC055 22/17 A2979 RMK A01
KBBF 111515Z AUTO 19014KT 10SM OVC050 22/17 A2980 RMK A01
KBBF 111455Z AUTO 19016KT 10SM FEW030 FEW038 BKN055 22/17 A2979 RMK A01
KBBF 111435Z AUTO 19013KT 10SM FEW040 FEW047 BKN055 22/17 A2980 RMK A01
KBBF 111415Z AUTO 19017KT 10SM SCT050 SCT060 22/17 A2979 RMK A01
KBBF 111355Z AUTO 19017KT 10SM FEW038 SCT047 BKN055 22/16 A2978 RMK A01
KBBF 111335Z AUTO 19017KT 10SM SCT038 BKN048 22/17 A2977 RMK A01
KBBF 111315Z AUTO 18017KT 10SM BKN050 22/16 A2976 RMK A01
KBBF 111255Z AUTO 18015KT 10SM FEW028 FEW032 BKN050 22/16 A2975 RMK A01
KBBF 111235Z AUTO 18018KT 10SM FEW042 BKN050 22/16 A2974 RMK A01
KBBF 111215Z AUTO 17016KT 10SM FEW034 FEW041 OVC050 22/16 A2974 RMK A01
KBBF 111155Z AUTO 18017KT 10SM FEW034 FEW041 OVC055 22/16 A2974 RMK A01
KBBF 111135Z AUTO 18015KT 10SM OVC050 22/16 A2975 RMK A01
KBBF 111115Z AUTO 19014KT 10SM FEW033 SCT038 OVC050 22/16 A2976 RMK A01
KBBF 111055Z AUTO 19013KT 10SM SCT036 BKN041 OVC055 22/16 A2978 RMK A01
KBBF 111035Z AUTO 20014KT 10SM OVC040 22/16 A2978 RMK A01
KBBF 111015Z AUTO 20013G26KT 10SM OVC039 22/15 A2978 RMK A01
KBBF 110955Z AUTO 19026KT 10SM OVC040 22/16 A2971 RMK A01
KBBF 110935Z AUTO 19025KT 10SM OVC040 22/15 A2972 RMK A01
KBBF 110915Z AUTO 19024KT 10SM FEW027 OVC038 22/15 A2973 RMK A01
KBBF 110855Z AUTO 20022KT 10SM SCT027 OVC036 22/15 A2974 RMK A01
KBBF 110655Z AUTO 19023KT 10SM OVC037 22/14 A2976 RMK A01
KBBF 110635Z AUTO 19023KT 10SM FEW030 OVC037 22/14 A2978 RMK A01
KBBF 110615Z AUTO 20026KT 10SM OVC036 22/15 A2977 RMK A01
KBBF 110555Z AUTO 19022G28KT 10SM OVC037 22/15 A2978 RMK A01
KBBF 110535Z AUTO 19026KT 10SM OVC035 22/15 A2978 RMK A01
KBBF 110515Z AUTO 18026KT 10SM OVC034 22/14 A2977 RMK A01
KBBF 110455Z AUTO 19028KT 10SM OVC033 22/15 A2977 RMK A01
KBBF 110435Z AUTO 19028KT 10SM OVC035 22/15 A2977 RMK A01
KBBF 110415Z AUTO 18025KT 10SM OVC034 22/15 A2978 RMK A01
KBBF 110355Z AUTO 19025KT 10SM OVC032 22/15 A2979 RMK A01
KBBF 110335Z AUTO 19025G31KT 10SM OVC031 22/15 A2978 RMK A01
KBBF 110315Z AUTO 18026KT 10SM BKN030 OVC035 22/15 A2976 RMK A01
KBBF 110255Z AUTO 18028KT 10SM OVC034 22/15 A2976 RMK A01
KBBF 110235Z AUTO 17027KT 10SM OVC035 22/15 A2977 RMK A01
KBBF 110215Z AUTO 17023G31KT 10SM BKN034 22/15 A2977 RMK A01
KBBF 110155Z AUTO 17025KT 10SM BKN034 21/14 A2977 RMK A01
KBBF 110135Z AUTO 18025KT 10SM OVC034 21/14 A2977 RMK A01
KBBF 110115Z AUTO 18025KT 10SM BKN034 21/14 A2976 RMK A01
KBBF 110055Z AUTO 18023KT 10SM BKN033 21/14 A2977 RMK A01
KBBF 110035Z AUTO 18026KT 10SM OVC034 21/14 A2977 RMK A01
KBBF 110015Z AUTO 18022KT 10SM FEW024 OVC034 21/14 A2978 RMK A01
KBBF 102355Z AUTO 17020KT 10SM FEW026 OVC034 21/15 A2978 RMK A01
KBBF 102335Z AUTO 16020KT 10SM FEW028 BKN035 21/15 A2978 RMK A01
KBBF 102315Z AUTO 17018KT 10SM OVC036 21/15 A2979 RMK A01
KBBF 102255Z AUTO 18019KT 10SM SCT028 OVC035 21/14 A2980 RMK A01
KBBF 102235Z AUTO 18017KT 10SM OVC036 21/14 A2980 RMK A01
KBBF 102215Z AUTO 18018KT 10SM OVC037 21/13 A2981 RMK A01
KBBF 102155Z AUTO 17018KT 10SM OVC035 21/14 A2981 RMK A01
KBBF 102135Z AUTO 16018KT 10SM OVC035 21/14 A2982 RMK A01
KBBF 102115Z AUTO 16016KT 10SM OVC035 21/14 A2982 RMK A01
KBBF 102055Z AUTO 17018KT 10SM BKN036 21/14 A2983 RMK A01
KBBF 102035Z AUTO 17016KT 10SM BKN037 21/14 A2984 RMK A01
KBBF 102015Z AUTO 17018KT 10SM BKN037 21/14 A2985 RMK A01
KBBF 101955Z AUTO 17017KT 10SM FEW028 SCT036 21/13 A2986 RMK A01
KBBF 101935Z AUTO 17016KT 10SM BKN035 21/13 A2987 RMK A01
KBBF 101915Z AUTO 17016KT 10SM BKN034 20/13 A2988 RMK A01
KBBF 101855Z AUTO 17015KT 10SM FEW031 21/13 A2990 RMK A01
KBBF 101835Z AUTO 17015KT FEW032 FEW038 21/13 A2992 RMK A01
KBBF 101815Z AUTO 17016KT 10SM SCT038 21/13 A2993 RMK A01
KBBF 101755Z AUTO 17018KT 10SM OVC036 21/13 A2995 RMK A01
KBBF 101735Z AUTO 17015KT 10SM BKN038 21/13 A2996 RMK A01
KBBF 101715Z AUTO 17016KT 10SM OVC036 21/13 A2997 RMK A01
KBBF 101655Z AUTO 16016KT 10SM OVC035 20/13 A2998 RMK A01
KBBF 101635Z AUTO 17016KT 10SM OVC036 20/13 A2998 RMK A01
KBBF 101615Z AUTO 17015KT 10SM FEW029 OVC036 20/13 A2998 RMK A01
KBBF 101555Z AUTO 17016KT 10SM BKN029 OVC033 20/13 A2998 RMK A01
KBBF 101535Z AUTO 16016KT 10SM BKN031 OVC036 20/13 A2998 RMK A01
KBBF 101515Z AUTO 16013KT 10SM OVC031 20/14 A2998 RMK A01
KBBF 101455Z AUTO 17011KT 10SM OVC032 20/12 A2998 RMK A01
KBBF 101435Z AUTO 18008KT 10SM BKN035 20/12 A2998 RMK A01
KBBF 101415Z AUTO 18013KT 10SM BKN034 20/12 A2998 RMK A01
KBBF 101355Z AUTO 17017KT 10SM OVC033 20/12 A2997 RMK A01
KBBF 101335Z AUTO 16017KT 10SM OVC032 20/13 A2996 RMK A01
KBBF 101315Z AUTO 15011KT 100V160 10SM OVC032 20/13 A2997 RMK A01
KBBF 101255Z AUTO 15011KT 10SM OVC032 20/12 A2997 RMK A01
KBBF 101235Z AUTO 18015KT 10SM OVC031 19/12 A2996 RMK A01
KBBF 101215Z AUTO 15008G14KT 10SM OVC031 19/12 A2997 RMK A01
KBBF 101155Z AUTO 16010KT 110V170 10SM OVC031 19/12 A2996 RMK A01
KBBF 101135Z AUTO 16012KT 10SM OVC028 19/12 A2996 RMK A01
KBBF 101115Z AUTO 19014KT 10SM OVC027 19/12 A2996 RMK A01
KBBF 101055Z AUTO 16007KT 090V170 10SM OVC028 19/13 A2997 RMK A01
KBBF 101035Z AUTO 15010G17KT 10SM OVC027 19/12 A2997 RMK A01
KBBF 101015Z AUTO 17014KT 10SM OVC026 19/13 A2997 RMK A01
KBBF 100955Z AUTO 18013KT 10SM OVC025 19/13 A2997 RMK A01
KBBF 100935Z AUTO 15012KT 10SM OVC026 19/13 A2997 RMK A01
KBBF 100915Z AUTO 16012KT 10SM OVC025 18/12 A2998 RMK A01
KBBF 100855Z AUTO 18013G18KT 10SM OVC025 18/12 A2998 RMK A01
KBBF 100835Z AUTO 15009G14KT 10SM OVC025 18/12 A2999 RMK A01
KBBF 100815Z AUTO 17012KT 10SM OVC024 19/13 A2999 RMK A01
KBBF 100755Z AUTO VRB07G13KT 030V170 10SM OVC024 19/13 A3000 RMK A01
KBBF 100735Z AUTO 17009KT 10SM OVC024 18/13 A3001 RMK A01
KBBF 100715Z AUTO VRB04G10KT 10SM OVC023 19/13 A3001 RMK A01
KBBF 100655Z AUTO VRB07G12KT 10SM OVC023 18/13 A3002 RMK A01
KBBF 100635Z AUTO 16011KT 10SM OVC023 18/13 A3003 RMK A01
KBBF 100615Z AUTO VRB06KT 10SM OVC022 18/13 A3004 RMK A01
KBBF 100555Z AUTO VRB03KT 10SM OVC022 18/12 A3005 RMK A01
KBBF 100535Z AUTO 16006G11KT 10SM OVC022 18/12 A3005 RMK A01
KBBF 100515Z AUTO 15007G12KT 050V180 10SM OVC021 18/12 A3006 RMK A01
KBBF 100455Z AUTO 16008KT 120V180 10SM OVC021 18/12 A3006 RMK A01
KBBF 100435Z AUTO 10007KT 10SM OVC022 18/12 A3007 RMK A01
KBBF 100415Z AUTO VRB03G10KT 10SM OVC022 18/12 A3008 RMK A01
KBBF 100355Z AUTO VRB04G14KT 10SM OVC021 18/12 A3007 RMK A01
KBBF 100335Z AUTO VRB06KT 10SM OVC021 18/12 A3007 RMK A01
KBBF 100315Z AUTO 10010KT 10SM OVC021 17/12 A3007 RMK A01
KBBF 100255Z AUTO 09011KT 10SM OVC021 17/12 A3007 RMK A01
KBBF 100235Z AUTO 09006G12KT 10SM OVC020 17/12 A3007 RMK A01
KBBF 100215Z AUTO 11008KT 10SM OVC020 17/11 A3006 RMK A01
KBBF 100155Z AUTO 10009KT 10SM OVC020 17/11 A3006 RMK A01
KBBF 100135Z AUTO VRB03KT 10SM OVC019 17/11 A3006 RMK A01
KBBF 100115Z AUTO 10007KT 10SM OVC019 16/11 A3006 RMK A01
KBBF 100055Z AUTO VRB04G10KT 10SM OVC019 16/11 A3006 RMK A01
KBBF 100035Z AUTO 10007KT 10SM OVC018 16/11 A3005 RMK A01
KBBF 100015Z AUTO 09004KT 10SM OVC018 16/11 A3005 RMK A01
KBBF 092355Z AUTO 08008KT 10SM OVC016 16/11 A3005 RMK A01
KBBF 092335Z AUTO 05007KT 10SM OVC016 16/11 A3005 RMK A01
KBBF 092315Z AUTO 04005KT 10SM OVC017 16/11 A3005 RMK A01
KBBF 092255Z AUTO 04007KT 10SM OVC017 16/11 A3005 RMK A01
KBBF 092235Z AUTO 06004KT 10SM OVC017 15/11 A3005 RMK A01
KBBF 092215Z AUTO 06008KT 10SM OVC016 15/11 A3005 RMK A01
KBBF 092155Z AUTO 06005KT 10SM OVC016 16/11 A3005 RMK A01
KBBF 092135Z AUTO 05008KT 10SM OVC016 16/11 A3005 RMK A01
KBBF 092115Z AUTO 06005KT 10SM OVC016 16/11 A3005 RMK A01
KBBF 092055Z AUTO 04005KT 10SM BKN016 16/11 A3006 RMK A01
KBBF 092035Z AUTO 05006KT 10SM SCT016 16/11 A3006 RMK A01
KBBF 092015Z AUTO 06006KT 10SM BKN015 15/11 A3006 RMK A01
KBBF 091955Z AUTO 07006KT 10SM BKN015 15/11 A3007 RMK A01
KBBF 091935Z AUTO 07006KT 10SM BKN015 15/10 A3008 RMK A01
KBBF 091915Z AUTO 06007KT 10SM BKN015 15/10 A3009 RMK A01
KBBF 091855Z AUTO 06008KT 10SM BKN015 15/10 A3011 RMK A01
KBBF 091835Z AUTO 06008KT 10SM BKN015 15/10 A3012 RMK A01
KBBF 091815Z AUTO 07011KT 10SM BKN015 15/10 A3013 RMK A01
KBBF 091755Z AUTO 05010KT 10SM OVC015 15/10 A3014 RMK A01
KBBF 091735Z AUTO 06010KT 10SM BKN015 15/10 A3015 RMK A01
KBBF 091715Z AUTO 06011KT 10SM SCT015 15/10 A3015 RMK A01
KBBF 091655Z AUTO 06013KT 10SM CLR 15/10 A3015 RMK A01
KBBF 091635Z AUTO 07014KT 10SM CLR 15/10 A3015 RMK A01
KBBF 091615Z AUTO 06017KT 10SM CLR 15/09 A3014 RMK A01
KBBF 091555Z AUTO 06018KT 10SM CLR 15/09 A3014 RMK A01
KBBF 091535Z AUTO 07018KT 10SM CLR 15/10 A3014 RMK A01
KBBF 091515Z AUTO 06015G20KT 10SM CLR 15/09 A3014 RMK A01
KBBF 091455Z AUTO 04014KT 10SM CLR 15/09 A3015 RMK A01
KBBF 091435Z AUTO 04014KT 10SM CLR 15/09 A3014 RMK A01
KBBF 091415Z AUTO 05014KT 10SM CLR 15/09 A3013 RMK A01
KBBF 091355Z AUTO 05013KT 10SM CLR 15/09 A3013 RMK A01
KBBF 091335Z AUTO 05015KT 10SM CLR 15/09 A3012 RMK A01
KBBF 091315Z AUTO 05014KT 10SM CLR 15/09 A3012 RMK A01
KBBF 091255Z AUTO 05014KT 10SM CLR 14/09 A3011 RMK A01
KBBF 091235Z AUTO 05014KT 10SM CLR 14/09 A3012 RMK A01
KBBF 091215Z AUTO 05014KT 10SM CLR 15/09 A3011 RMK A01
KBBF 091155Z AUTO 04013KT CLR 14/09 A3011 RMK A01
KBBF 091135Z AUTO 05014KT 10SM CLR 15/09 A3010 RMK A01
KBBF 091115Z AUTO 04015KT 10SM CLR 15/09 A3010 RMK A01
KBBF 091055Z AUTO 06015KT 10SM CLR 15/10 A3010 RMK A01
KBBF 091035Z AUTO 06015KT 10SM CLR 15/10 A3010 RMK A01
KBBF 091015Z AUTO 06015KT 10SM CLR 15/10 A3010 RMK A01
KBBF 090955Z AUTO 05015KT 10SM CLR 15/09 A3011 RMK A01
KBBF 090935Z AUTO 04013KT 10SM CLR 15/08 A3011 RMK A01
KBBF 090915Z AUTO 05014KT 10SM CLR 15/08 A3011 RMK A01
KBBF 090855Z AUTO 04017KT 10SM CLR 15/08 A3011 RMK A01
KBBF 090835Z AUTO 05018KT 10SM FEW025 FEW030 FEW040 16/08 A3011 RMK A01
KBBF 090815Z AUTO 04019KT 10SM CLR 16/07 A3011 RMK A01
KBBF 090755Z AUTO 04019KT 10SM CLR 16/07 A3010 RMK A01
KBBF 090735Z AUTO 04018KT 10SM CLR 16/07 A3011 RMK A01
KBBF 090715Z AUTO 03018KT 10SM CLR 16/07 A3011 RMK A01
KBBF 090655Z AUTO 04018KT 10SM CLR 17/07 A3011 RMK A01
KBBF 090635Z AUTO 03019KT 10SM CLR 17/06 A3011 RMK A01
KBBF 090615Z AUTO 04020KT 10SM CLR 17/06 A3012 RMK A01
KBBF 090555Z AUTO 03021KT 10SM CLR 17/06 A3012 RMK A01
KBBF 090535Z AUTO 03022KT 10SM CLR 17/06 A3012 RMK A01
KBBF 090515Z AUTO 03023KT 10SM CLR 17/06 A3012 RMK A01
KBBF 090455Z AUTO 03022KT 10SM CLR 17/06 A3012 RMK A01
KBBF 090435Z AUTO 02020KT CLR 17/08 A3013 RMK A01
KBBF 090415Z AUTO 02023KT 10SM CLR 17/06 A3013 RMK A01
KBBF 090355Z AUTO 03024KT 10SM CLR 18/06 A3013 RMK A01
KBBF 090335Z AUTO 03023KT 10SM CLR 17/06 A3012 RMK A01
KBBF 090315Z AUTO 03022KT 10SM CLR 18/06 A3012 RMK A01
KBBF 090255Z AUTO 02023KT 10SM CLR 18/06 A3012 RMK A01
KBBF 090235Z AUTO 02023KT 10SM CLR 18/06 A3011 RMK A01
KBBF 090215Z AUTO 02023G28KT 10SM CLR 18/07 A3010 RMK A01
KBBF 090155Z AUTO 02022KT 10SM CLR 19/06 A3010 RMK A01
KBBF 090135Z AUTO 01022KT 10SM CLR 19/06 A3009 RMK A01
KBBF 090115Z AUTO 36021KT 10SM CLR 19/06 A3009 RMK A01
KBBF 090055Z AUTO 36020KT 10SM CLR 19/07 A3008 RMK A01
KBBF 090035Z AUTO 36021KT 10SM CLR 19/06 A3008 RMK A01
KBBF 090015Z AUTO 35019KT 10SM CLR 19/07 A3007 RMK A01
KBBF 082355Z AUTO 34015KT 10SM CLR 19/07 A3007 RMK A01
KBBF 082335Z AUTO 35017KT 10SM CLR 19/07 A3006 RMK A01
KBBF 082315Z AUTO 35015KT 10SM CLR 19/08 A3006 RMK A01
KBBF 082255Z AUTO 35018KT 10SM CLR 19/07 A3006 RMK A01
KBBF 082235Z AUTO 35020KT 10SM CLR 19/07 A3006 RMK A01
KBBF 082215Z AUTO 35019KT 10SM CLR 18/07 A3005 RMK A01
KBBF 082155Z AUTO 35019KT 10SM CLR 18/07 A3005 RMK A01
KBBF 082135Z AUTO 35021KT 10SM CLR 18/07 A3004 RMK A01
KBBF 082115Z AUTO 35020KT 10SM CLR 18/08 A3004 RMK A01
KBBF 082055Z AUTO 35025KT 10SM CLR 17/07 A3004 RMK A01
KBBF 082035Z AUTO 35023KT 10SM CLR 17/08 A3005 RMK A01
KBBF 082015Z AUTO 35021G26KT 10SM CLR 17/08 A3005 RMK A01
KBBF 081955Z AUTO 35025KT 10SM CLR 16/08 A3006 RMK A01
KBBF 081935Z AUTO 35021KT 10SM CLR 16/09 A3006 RMK A01
KBBF 081915Z AUTO 35024KT 10SM CLR 15/09 A3006 RMK A01
KBBF 081855Z AUTO 36023KT 10SM SCT018 15/09 A3006 RMK A01
KBBF 081835Z AUTO 35021KT 10SM BKN017 15/10 A3008 RMK A01
KBBF 081815Z AUTO 36019G25KT 10SM BKN017 14/10 A3009 RMK A01
KBBF 081755Z AUTO 36018G25KT 10SM BKN016 14/09 A3009 RMK A01
KBBF 081735Z AUTO 01020G25KT 10SM OVC015 14/09 A3009 RMK A01
KBBF 081715Z AUTO 01022KT 10SM OVC014 14/10 A3010 RMK A01
KBBF 081655Z AUTO 01022KT 10SM OVC014 13/09 A3011 RMK A01
KBBF 081635Z AUTO 01021KT 10SM OVC014 13/09 A3011 RMK A01
KBBF 081615Z AUTO 02023KT 10SM BKN014 13/09 A3010 RMK A01
KBBF 081555Z AUTO 01024G31KT 10SM BKN017 14/09 A3010 RMK A01
KBBF 081535Z AUTO 01027KT 10SM FEW018 14/09 A3009 RMK A01
KBBF 081515Z AUTO 01028G33KT 10SM CLR 14/09 A3008 RMK A01
KBBF 081455Z AUTO 01031KT 10SM CLR 15/09 A3007 RMK A01
KBBF 081435Z AUTO 36029KT 10SM CLR 15/09 A3006 RMK A01
KBBF 081415Z AUTO 36032KT 10SM CLR 15/10 A3005 RMK A01
KBBF 081355Z AUTO 36030G36KT 10SM CLR 15/09 A3005 RMK A01
KBBF 081335Z AUTO 36030G35KT 10SM CLR 15/09 A3004 RMK A01
KBBF 081315Z AUTO 36031G37KT 10SM CLR 15/09 A3002 RMK A01
KBBF 081255Z AUTO 36031KT 10SM CLR 16/09 A3001 RMK A01
KBBF 081235Z AUTO 01030G35KT 10SM CLR 16/09 A3001 RMK A01
KBBF 081215Z AUTO 36026G33KT 10SM CLR 16/09 A3000 RMK A01
KBBF 081155Z AUTO 35028KT 10SM CLR 17/10 A3000 RMK A01
KBBF 081135Z AUTO 36028KT 10SM CLR 17/11 A2999 RMK A01
KBBF 081115Z AUTO 36025KT 10SM CLR 17/12 A2998 RMK A01
KBBF 081055Z AUTO 35024G30KT 10SM FEW024 FEW050 17/12 A2998 RMK A01
KBBF 081035Z AUTO 34027KT 10SM FEW024 FEW050 FEW055 18/14 A2998 RMK A01
KBBF 081015Z AUTO 33026KT 10SM FEW025 FEW039 SCT055 18/15 A2997 RMK A01
KBBF 080955Z AUTO 30020G25KT 10SM FEW037 FEW045 SCT055 19/16 A2997 RMK A01
KBBF 080935Z AUTO 28021G26KT FEW039 BKN045 BKN055 20/16 A2996 RMK A01
KBBF 080915Z AUTO 27024KT 10SM FEW042 SCT049 BKN060 20/16 A2995 RMK A01
KBBF 080855Z AUTO 28023KT 10SM FEW034 SCT041 BKN060 20/17 A2995 RMK A01
KBBF 080835Z AUTO 28024KT 10SM SCT034 BKN041 OVC065 20/17 A2995 RMK A01
KBBF 080815Z AUTO 27023G29KT 10SM FEW039 BKN047 BKN055 20/17 A2995 RMK A01
KBBF 080755Z AUTO 26025G32KT 10SM SCT047 SCT060 BKN075 21/18 A2994 RMK A01
KBBF 080735Z AUTO 26026KT 10SM BKN047 BKN060 21/18 A2994 RMK A01
KBBF 080715Z AUTO 27018KT 10SM FEW018 SCT047 SCT055 21/18 A2994 RMK A01
KBBF 080655Z AUTO 25021KT 10SM FEW017 FEW022 SCT049 22/19 A2993 RMK A01
KBBF 080635Z AUTO 25019KT 10SM FEW024 SCT050 BKN065 22/19 A2994 RMK A01
KBBF 080615Z AUTO 26018KT 10SM SCT018 BKN034 OVC070 22/19 A2995 RMK A01
KBBF 080555Z AUTO 25018G27KT 10SM FEW014 BKN020 OVC029 22/19 A2995 RMK A01
KBBF 080535Z AUTO 24016G21KT 10SM BKN020 BKN027 OVC055 23/19 A2995 RMK A01
KBBF 080515Z AUTO 22018KT 10SM SCT026 BKN044 OVC055 22/19 A2994 RMK A01
KBBF 080455Z AUTO 23014KT 10SM SCT021 SCT030 BKN036 23/19 A2996 RMK A01
KBBF 080435Z AUTO 22017KT 10SM SCT021 BKN032 BKN049 22/19 A2995 RMK A01
KBBF 080415Z AUTO 21017KT 10SM SCT020 BKN032 BKN050 22/19 A2995 RMK A01
KBBF 080355Z AUTO 21017KT 10SM SCT020 SCT045 BKN120 22/18 A2995 RMK A01
KBBF 080335Z AUTO 21019KT 10SM FEW020 SCT044 SCT055 22/18 A2994 RMK A01
KBBF 080315Z AUTO 21020KT 10SM SCT020 SCT041 BKN065 22/18 A2995 RMK A01
KBBF 080255Z AUTO 20023KT 10SM FEW020 SCT040 BKN075 22/18 A2993 RMK A01
KBBF 080235Z AUTO 20019KT 10SM FEW019 BKN040 OVC080 22/18 A2995 RMK A01
KBBF 080215Z AUTO 20017KT 10SM FEW007 BKN032 OVC070 22/18 A2995 RMK A01
KBBF 080155Z AUTO 20017KT 10SM SCT027 OVC035 22/18 A2995 RMK A01
KBBF 080135Z AUTO 20016KT 10SM FEW028 OVC038 22/17 A2995 RMK A01
KBBF 080115Z AUTO 19019KT 10SM FEW031 BKN040 OVC045 22/17 A2993 RMK A01
KBBF 080055Z AUTO 19020G26KT 10SM FEW031 OVC040 22/17 A2993 RMK A01
KBBF 080035Z AUTO 19019KT 10SM FEW030 OVC040 22/17 A2994 RMK A01
KBBF 080015Z AUTO 20021KT 10SM FEW029 BKN039 OVC044 22/17 A2993 RMK A01
KBBF 072355Z AUTO 20021KT 10SM BKN035 OVC042 22/17 A2993 RMK A01
KBBF 072335Z AUTO 20023KT 10SM FEW033 OVC041 22/17 A2993 RMK A01
KBBF 072315Z AUTO 20021KT 10SM FEW032 BKN041 OVC049 22/17 A2993 RMK A01
KBBF 072255Z AUTO 20024KT 10SM BKN041 BKN048 OVC060 22/16 A2992 RMK A01
KBBF 072235Z AUTO 20023KT 10SM FEW043 BKN055 22/16 A2993 RMK A01
KBBF 072215Z AUTO 19021KT 10SM SCT044 OVC055 22/16 A2992 RMK A01
KBBF 072155Z AUTO 19022G27KT 10SM FEW045 OVC050 22/16 A2992 RMK A01
KBBF 072135Z AUTO 19024KT 10SM BKN050 22/16 A2991 RMK A01
KBBF 072115Z AUTO 19026KT 10SM OVC050 22/15 A2991 RMK A01
KBBF 072055Z AUTO 19022KT 10SM BKN050 OVC055 22/15 A2992 RMK A01
KBBF 072035Z AUTO 19020KT 10SM OVC055 22/16 A2995 RMK A01
KBBF 072015Z AUTO 19019KT 10SM BKN050 OVC055 22/15 A2996 RMK A01
KBBF 071955Z AUTO 20019KT 10SM OVC050 22/15 A2998 RMK A01
KBBF 071935Z AUTO 19020KT 10SM BKN050 22/15 A2999 RMK A01
KBBF 071915Z AUTO 19020KT 10SM BKN050 22/15 A3000 RMK A01
KBBF 071855Z AUTO 19021KT 10SM BKN055 22/15 A3001 RMK A01
KBBF 071835Z AUTO 19019KT 10SM BKN055 22/15 A3003 RMK A01
KBBF 071815Z AUTO 20021KT 10SM BKN055 22/15 A3004 RMK A01
KBBF 071755Z AUTO 19021KT 10SM SCT055 22/14 A3006 RMK A01
KBBF 071735Z AUTO 19020KT 10SM CLR 22/14 A3007 RMK A01
KBBF 071715Z AUTO 19020KT 10SM CLR 22/14 A3009 RMK A01
KBBF 071655Z AUTO 19019KT FEW029 FEW041 22/14 A3009 RMK A01
KBBF 071635Z AUTO 19021KT 10SM FEW029 SCT034 SCT041 22/14 A3010 RMK A01
KBBF 071615Z AUTO 19020KT 10SM FEW029 FEW034 22/14 A3010 RMK A01
KBBF 071555Z AUTO 19021KT 10SM FEW030 22/14 A3010 RMK A01
KBBF 071535Z AUTO 19020KT 10SM CLR 22/14 A3010 RMK A01
KBBF 071515Z AUTO 20018KT 10SM CLR 22/14 A3011 RMK A01
KBBF 071455Z AUTO 19019KT 10SM CLR 22/14 A3011 RMK A01
KBBF 071435Z AUTO 20018KT 10SM SCT060 21/14 A3011 RMK A01
KBBF 071415Z AUTO 20021KT 10SM SCT035 BKN048 OVC060 22/14 A3011 RMK A01
KBBF 071355Z AUTO 20020KT 10SM SCT035 BKN041 OVC060 22/14 A3012 RMK A01
KBBF 071335Z AUTO 18018KT 10SM FEW042 BKN049 OVC060 21/13 A3011 RMK A01
KBBF 071315Z AUTO 19018KT 10SM FEW033 BKN049 OVC055 21/13 A3011 RMK A01
KBBF 071255Z AUTO 19017KT 10SM SCT033 SCT043 OVC050 21/14 A3011 RMK A01
KBBF 071235Z AUTO 19016KT 10SM BKN033 BKN042 OVC050 21/13 A3011 RMK A01
KBBF 071215Z AUTO 18016KT 10SM FEW031 SCT037 BKN045 21/14 A3010 RMK A01
KBBF 071155Z AUTO 19016KT 10SM SCT035 SCT043 SCT055 21/14 A3011 RMK A01
KBBF 071135Z AUTO 19018KT 10SM FEW038 FEW050 21/13 A3011 RMK A01
KBBF 071115Z AUTO 19019KT 10SM FEW035 FEW042 BKN050 21/12 A3011 RMK A01
KBBF 071055Z AUTO 19019G25KT 10SM SCT035 BKN043 BKN048 21/13 A3011 RMK A01
KBBF 071035Z AUTO 19018KT 10SM FEW035 SCT040 SCT047 21/13 A3012 RMK A01
KBBF 071015Z AUTO 18017KT 10SM FEW045 21/12 A3012 RMK A01
KBBF 070955Z AUTO 18018KT 10SM FEW045 SCT050 21/12 A3013 RMK A01
KBBF 070935Z AUTO 18017KT 10SM FEW033 FEW041 FEW050 21/12 A3014 RMK A01
KBBF 070915Z AUTO 18017KT 10SM FEW037 FEW049 20/12 A3014 RMK A01
KBBF 070855Z AUTO 18019KT 10SM FEW037 FEW050 FEW055 20/12 A3015 RMK A01
KBBF 070835Z AUTO 18019KT 10SM CLR 20/12 A3016 RMK A01
KBBF 070815Z AUTO 17017KT 10SM CLR 20/11 A3017 RMK A01
KBBF 070755Z AUTO 18019KT 10SM FEW055 20/11 A3017 RMK A01
KBBF 070735Z AUTO 17018KT 10SM SCT055 20/11 A3018 RMK A01
KBBF 070715Z AUTO 16018KT 10SM FEW036 BKN060 20/11 A3019 RMK A01
KBBF 070655Z AUTO 17018KT 10SM FEW039 BKN060 20/11 A3020 RMK A01
KBBF 070635Z AUTO 17017KT 10SM FEW048 SCT060 20/11 A3020 RMK A01
KBBF 070615Z AUTO 16017KT 10SM FEW046 SCT055 20/11 A3020 RMK A01
KBBF 070555Z AUTO 15017KT 10SM FEW046 SCT055 20/10 A3022 RMK A01
KBBF 070535Z AUTO 15018KT 10SM FEW046 BKN060 20/10 A3022 RMK A01
KBBF 070515Z AUTO 16018KT 10SM FEW046 OVC060 20/10 A3023 RMK A01
KBBF 070455Z AUTO 15016G21KT 10SM OVC060 20/10 A3024 RMK A01
KBBF 070435Z AUTO 15015G22KT 10SM OVC060 20/10 A3023 RMK A01
KBBF 070415Z AUTO 15015KT 10SM FEW048 OVC060 20/10 A3024 RMK A01
KBBF 070355Z AUTO 15015KT 10SM BKN045 BKN050 OVC065 20/10 A3025 RMK A01
KBBF 070335Z AUTO 15015KT 10SM BKN045 20/11 A3025 RMK A01
KBBF 070315Z AUTO 15016KT 10SM OVC044 20/11 A3024 RMK A01
KBBF 070255Z AUTO 15016KT 10SM BKN041 OVC048 20/11 A3024 RMK A01
KBBF 070235Z AUTO 15015KT 10SM FEW039 BKN049 OVC070 20/11 A3025 RMK A01
KBBF 070215Z AUTO 15015KT 10SM FEW035 SCT049 OVC070 20/11 A3024 RMK A01
KBBF 070155Z AUTO 15014KT 10SM FEW037 BKN045 OVC070 20/12 A3024 RMK A01
KBBF 070135Z AUTO 15016KT 10SM SCT039 BKN045 OVC070 20/11 A3025 RMK A01
KBBF 070115Z AUTO 15015KT 10SM BKN038 BKN055 OVC065 20/11 A3025 RMK A01
KBBF 070055Z AUTO 15013KT 10SM FEW037 SCT055 OVC065 20/12 A3025 RMK A01
KBBF 070035Z AUTO 15011G16KT 10SM BKN036 BKN055 OVC070 20/12 A3025 RMK A01
KBBF 070015Z AUTO 14010G15KT 10SM SCT034 SCT041 20/12 A3025 RMK A01
KBBF 062355Z AUTO VRB04G10KT 10SM CLR 20/11 A3025 RMK A01
KBBF 062335Z AUTO 14006KT 10SM CLR 20/10 A3025 RMK A01
KBBF 062315Z AUTO VRB06G12KT 100V180 10SM SCT040 SCT050 20/10 A3024 RMK A01
KBBF 062255Z AUTO 16009KT 10SM SCT038 BKN049 20/10 A3024 RMK A01
KBBF 062235Z AUTO 16010KT 10SM SCT037 BKN047 BKN075 20/11 A3025 RMK A01
KBBF 062215Z AUTO 16009KT 10SM BKN075 20/11 A3024 RMK A01
KBBF 062155Z AUTO 15007KT 090V160 10SM FEW038 BKN075 20/11 A3025 RMK A01
KBBF 062135Z AUTO VRB03G13KT 10SM SCT037 20/10 A3025 RMK A01
KBBF 062115Z AUTO 14008KT 100V170 10SM FEW036 20/11 A3026 RMK A01
KBBF 062055Z AUTO VRB04G10KT 10SM CLR 21/10 A3025 RMK A01
KBBF 062035Z AUTO VRB07KT 080V170 10SM CLR 21/10 A3026 RMK A01
KBBF 062015Z AUTO VRB05G10KT 10SM CLR 21/10 A3026 RMK A01
KBBF 061955Z AUTO VRB06KT 10SM CLR 21/10 A3027 RMK A01
KBBF 061935Z AUTO VRB05KT 10SM FEW065 21/11 A3027 RMK A01
KBBF 061910Z AUTO VRB06KT 10SM FEW065 21/11 A3029 RMK A01
KBBF 061855Z AUTO VRB05KT 10SM CLR 21/10 A3030 RMK A01
KBBF 061835Z AUTO VRB06KT 10SM SCT037 20/11 A3030 RMK A01
KBBF 061815Z AUTO VRB04KT 10SM FEW037 21/10 A3032 RMK A01
KBBF 061755Z AUTO 00000KT 10SM SCT070 21/11 A3033 RMK A01
KBBF 061735Z AUTO 00000KT 10SM BKN070 21/10 A3033 RMK A01
KBBF 061715Z AUTO 16005KT 10SM SCT070 20/10 A3034 RMK A01
KBBF 061655Z AUTO 15006KT 10SM BKN070 21/10 A3034 RMK A01
KBBF 061635Z AUTO VRB04G10KT 10SM SCT070 20/10 A3034 RMK A01
KBBF 061615Z AUTO VRB04KT 10SM FEW037 BKN070 21/10 A3034 RMK A01
KBBF 061555Z AUTO VRB05KT 10SM OVC070 20/10 A3033 RMK A01
KBBF 061535Z AUTO 15006KT 10SM FEW038 FEW047 BKN070 20/10 A3033 RMK A01
KBBF 061515Z AUTO VRB03G10KT 10SM BKN036 BKN042 BKN048 20/11 A3032 RMK A01
KBBF 061455Z AUTO VRB03KT 10SM BKN036 OVC050 20/11 A3031 RMK A01
KBBF 061435Z AUTO 11006KT 10SM FEW036 SCT047 OVC070 20/10 A3031 RMK A01
KBBF 061415Z AUTO 00000KT 10SM FEW036 OVC070 20/10 A3031 RMK A01
KBBF 061355Z AUTO 00000KT 10SM FEW036 OVC070 19/10 A3031 RMK A01
KBBF 061335Z AUTO 17004KT 10SM BKN070 19/10 A3031 RMK A01
KBBF 061315Z AUTO 16006KT 10SM BKN070 19/10 A3029 RMK A01
KBBF 061255Z AUTO 00000KT 10SM OVC070 19/10 A3029 RMK A01
KBBF 061235Z AUTO 00000KT 10SM OVC065 19/11 A3029 RMK A01
KBBF 061215Z AUTO 15005KT 10SM OVC065 19/10 A3028 RMK A01
KBBF 061155Z AUTO 00000KT 10SM OVC065 19/10 A3028 RMK A01
KBBF 061135Z AUTO 20004KT 10SM OVC065 19/11 A3028 RMK A01
KBBF 061115Z AUTO 19005KT 10SM OVC065 19/10 A3027 RMK A01
KBBF 061055Z AUTO 17004KT 10SM OVC065 19/10 A3027 RMK A01
KBBF 061035Z AUTO 18005KT 10SM OVC065 19/10 A3027 RMK A01
KBBF 061015Z AUTO 18006KT 10SM FEW037 FEW050 OVC060 19/10 A3027 RMK A01
KBBF 060955Z AUTO 17007KT 10SM FEW027 SCT034 BKN041 19/10 A3026 RMK A01
KBBF 060935Z AUTO 20006KT 10SM OVC027 18/11 A3026 RMK A01
KBBF 060915Z AUTO VRB04KT 10SM SCT027 BKN046 OVC065 19/12 A3027 RMK A01
KBBF 060855Z AUTO VRB04G10KT 10SM SCT030 BKN038 OVC055 19/12 A3027 RMK A01
KBBF 060835Z AUTO VRB06G12KT 10SM SCT029 BKN035 BKN055 19/12 A3027 RMK A01
KBBF 060815Z AUTO VRB05KT 10SM BKN033 BKN060 18/11 A3027 RMK A01
KBBF 060755Z AUTO 15009KT 10SM BKN033 BKN055 18/11 A3028 RMK A01
KBBF 060735Z AUTO VRB05G11KT 10SM FEW029 SCT034 SCT055 18/11 A3028 RMK A01
KBBF 060715Z AUTO VRB05G11KT 10SM FEW030 FEW055 18/11 A3028 RMK A01
KBBF 060655Z AUTO 13007KT 10SM SCT055 18/11 A3029 RMK A01
KBBF 060630Z AUTO 11007KT 10SM BKN055 18/10 A3030 RMK A01
KBBF 060615Z AUTO VRB03G10KT 10SM BKN055 18/10 A3030 RMK A01
KBBF 060555Z AUTO VRB05KT 10SM FEW034 FEW060 18/10 A3031 RMK A01
KBBF 060535Z AUTO 11007KT 10SM FEW060 18/09 A3031 RMK A01
KBBF 060515Z AUTO VRB05KT 10SM CLR 18/10 A3032 RMK A01
KBBF 060455Z AUTO VRB06KT 10SM CLR 18/10 A3033 RMK A01
KBBF 060435Z AUTO 10006KT 10SM FEW110 18/10 A3033 RMK A01
KBBF 060415Z AUTO VRB06KT 10SM BKN110 18/10 A3033 RMK A01
KBBF 060355Z AUTO 09006KT 10SM OVC110 17/10 A3034 RMK A01
KBBF 060335Z AUTO 10007KT 10SM BKN110 17/09 A3033 RMK A01
KBBF 060315Z AUTO 10008KT 10SM CLR 18/10 A3032 RMK A01
KBBF 060255Z AUTO VRB05G12KT 10SM CLR 17/10 A3032 RMK A01